Observation data for Amarillo 15 North Northwest on 09/16/2020      Previous  Date  Next       Current Mesonet Observations  Soil Data  Daily Summary Page  Observations in Plain Language
KAM3 160500Z 16010KT 19/13 A3013 RMK A01 T01880127  RH  068%=      5-min Rain = 0
KAM3 160501Z 16010KT 19/13 A3013 RMK A01 T01880127  RH  068%=      5-min Rain = 0
KAM3 160502Z 16011KT 19/13 A3013 RMK A01 T01890127  RH  068%=      5-min Rain = 0
KAM3 160503Z 15011KT 19/13 A3013 RMK A01 T01900128  RH  067%=      5-min Rain = 0
KAM3 160504Z 16010KT 19/13 A3013 RMK A01 T01910128  RH  067%=      5-min Rain = 0
KAM3 160505Z 15010KT 19/13 A3013 RMK A01 T01910128  RH  067%=      5-min Rain = 0
KAM3 160506Z 15010KT 19/13 A3013 RMK A01 T01910128  RH  067%=      5-min Rain = 0
KAM3 160507Z 15010KT 19/13 A3013 RMK A01 T01920129  RH  067%=      5-min Rain = 0
KAM3 160508Z 15011KT 19/13 A3013 RMK A01 T01910128  RH  067%=      5-min Rain = 0
KAM3 160509Z 16011KT 19/13 A3013 RMK A01 T01920128  RH  067%=      5-min Rain = 0
KAM3 160510Z 15010KT 19/13 A3013 RMK A01 T01920128  RH  066%=      5-min Rain = 0
KAM3 160511Z 15010KT 19/13 A3013 RMK A01 T01930128  RH  066%=      5-min Rain = 0
KAM3 160512Z 15010KT 19/13 A3013 RMK A01 T01930128  RH  066%=      5-min Rain = 0
KAM3 160513Z 16011KT 19/13 A3013 RMK A01 T01930128  RH  066%=      5-min Rain = 0
KAM3 160514Z 15010KT 19/13 A3013 RMK A01 T01930128  RH  066%=      5-min Rain = 0
KAM3 160515Z 15011KT 19/13 A3013 RMK A01 T01940128  RH  066%=      5-min Rain = 0
KAM3 160516Z 16010KT 19/13 A3013 RMK A01 T01940128  RH  066%=      5-min Rain = 0
KAM3 160517Z 16010KT 19/13 A3013 RMK A01 T01940129  RH  066%=      5-min Rain = 0
KAM3 160518Z 16010KT 19/13 A3013 RMK A01 T01940129  RH  066%=      5-min Rain = 0
KAM3 160519Z 15010KT 19/13 A3013 RMK A01 T01940129  RH  066%=      5-min Rain = 0
KAM3 160520Z 16010KT 19/13 A3013 RMK A01 T01940129  RH  066%=      5-min Rain = 0
KAM3 160521Z 15009KT 19/13 A3013 RMK A01 T01940129  RH  066%=      5-min Rain = 0
KAM3 160522Z 16011KT 19/13 A3013 RMK A01 T01940129  RH  066%=      5-min Rain = 0
KAM3 160523Z 16011KT 19/13 A3013 RMK A01 T01930129  RH  066%=      5-min Rain = 0
KAM3 160524Z 15011KT 19/13 A3013 RMK A01 T01930128  RH  066%=      5-min Rain = 0
KAM3 160525Z 16010KT 19/13 A3013 RMK A01 T01940128  RH  066%=      5-min Rain = 0
KAM3 160526Z 15011KT 20/13 A3013 RMK A01 T01950128  RH  065%=      5-min Rain = 0
KAM3 160527Z 16010KT 20/13 A3013 RMK A01 T01950129  RH  065%=      5-min Rain = 0
KAM3 160528Z 15011KT 19/13 A3013 RMK A01 T01940128  RH  066%=      5-min Rain = 0
KAM3 160529Z 16010KT 19/13 A3013 RMK A01 T01940128  RH  066%=      5-min Rain = 0
KAM3 160530Z 16010KT 19/13 A3013 RMK A01 T01940129  RH  066%=      5-min Rain = 0
KAM3 160531Z 16010KT 19/13 A3013 RMK A01 T01940128  RH  066%=      5-min Rain = 0
KAM3 160532Z 15010KT 19/13 A3013 RMK A01 T01940128  RH  066%=      5-min Rain = 0
KAM3 160533Z 16009KT 19/13 A3013 RMK A01 T01930128  RH  066%=      5-min Rain = 0
KAM3 160534Z 15010KT 19/13 A3012 RMK A01 T01930128  RH  066%=      5-min Rain = 0
KAM3 160535Z 15010KT 19/13 A3012 RMK A01 T01930128  RH  066%=      5-min Rain = 0
KAM3 160536Z 16011KT 19/13 A3012 RMK A01 T01930128  RH  066%=      5-min Rain = 0
KAM3 160537Z 15011KT 19/13 A3012 RMK A01 T01930128  RH  066%=      5-min Rain = 0
KAM3 160538Z 15011KT 19/13 A3012 RMK A01 T01930128  RH  066%=      5-min Rain = 0
KAM3 160539Z 15010KT 19/13 A3012 RMK A01 T01930128  RH  066%=      5-min Rain = 0
KAM3 160540Z 15009KT 19/13 A3012 RMK A01 T01930128  RH  066%=      5-min Rain = 0
KAM3 160541Z 16010KT 19/13 A3012 RMK A01 T01920128  RH  066%=      5-min Rain = 0
KAM3 160542Z 16010KT 19/13 A3012 RMK A01 T01910128  RH  066%=      5-min Rain = 0
KAM3 160543Z 15011KT 19/13 A3012 RMK A01 T01910128  RH  066%=      5-min Rain = 0
KAM3 160544Z 16011KT 19/13 A3012 RMK A01 T01920128  RH  066%=      5-min Rain = 0
KAM3 160545Z 15010KT 19/13 A3012 RMK A01 T01920128  RH  066%=      5-min Rain = 0
KAM3 160546Z 16010KT 19/13 A3012 RMK A01 T01920127  RH  066%=      5-min Rain = 0
KAM3 160547Z 16010KT 19/13 A3012 RMK A01 T01920127  RH  066%=      5-min Rain = 0
KAM3 160548Z 16009KT 19/13 A3012 RMK A01 T01910128  RH  066%=      5-min Rain = 0
KAM3 160549Z 15010KT 19/13 A3012 RMK A01 T01910128  RH  067%=      5-min Rain = 0
KAM3 160550Z 16010KT 19/13 A3012 RMK A01 T01910128  RH  067%=      5-min Rain = 0
KAM3 160551Z 16010KT 19/13 A3012 RMK A01 T01910128  RH  067%=      5-min Rain = 0
KAM3 160552Z 16011KT 19/13 A3012 RMK A01 T01910128  RH  067%=      5-min Rain = 0
KAM3 160553Z 16009KT 19/13 A3012 RMK A01 T01910128  RH  067%=      5-min Rain = 0
KAM3 160554Z 16009KT 19/13 A3012 RMK A01 T01900128  RH  067%=      5-min Rain = 0
KAM3 160555Z 16010KT 19/13 A3012 RMK A01 T01900128  RH  067%=      5-min Rain = 0
KAM3 160556Z 16010KT 19/13 A3012 RMK A01 T01900127  RH  067%=      5-min Rain = 0
KAM3 160557Z 16009KT 19/13 A3012 RMK A01 T01900127  RH  067%=      5-min Rain = 0
KAM3 160558Z 16010KT 19/13 A3012 RMK A01 T01900127  RH  067%=      5-min Rain = 0
KAM3 160559Z 16010KT 19/13 A3012 RMK A01 T01900127  RH  067%=      5-min Rain = 0
KAM3 160600Z 16010KT 19/13 A3012 RMK A01 T01900127  RH  067%=      5-min Rain = 0
KAM3 160601Z 15009KT 19/13 A3012 RMK A01 T01900127  RH  067%=      5-min Rain = 0
KAM3 160602Z 15010KT 19/13 A3012 RMK A01 T01890127  RH  067%=      5-min Rain = 0
KAM3 160603Z 15010KT 19/13 A3012 RMK A01 T01890127  RH  067%=      5-min Rain = 0
KAM3 160604Z 15010KT 19/13 A3012 RMK A01 T01890127  RH  067%=      5-min Rain = 0
KAM3 160605Z 15009KT 19/13 A3012 RMK A01 T01890127  RH  067%=      5-min Rain = 0
KAM3 160606Z 15010KT 19/13 A3012 RMK A01 T01890127  RH  067%=      5-min Rain = 0
KAM3 160607Z 15010KT 19/13 A3012 RMK A01 T01890127  RH  067%=      5-min Rain = 0
KAM3 160608Z 15009KT 19/13 A3012 RMK A01 T01890127  RH  067%=      5-min Rain = 0
KAM3 160609Z 15009KT 19/13 A3012 RMK A01 T01890127  RH  067%=      5-min Rain = 0
KAM3 160610Z 15009KT 19/13 A3012 RMK A01 T01890127  RH  067%=      5-min Rain = 0
KAM3 160611Z 15009KT 19/13 A3012 RMK A01 T01880127  RH  068%=      5-min Rain = 0
KAM3 160612Z 15009KT 19/13 A3012 RMK A01 T01880127  RH  068%=      5-min Rain = 0
KAM3 160613Z 16009KT 19/13 A3012 RMK A01 T01870127  RH  068%=      5-min Rain = 0
KAM3 160614Z 15009KT 19/13 A3012 RMK A01 T01870127  RH  068%=      5-min Rain = 0
KAM3 160615Z 15009KT 19/13 A3012 RMK A01 T01860127  RH  068%=      5-min Rain = 0
KAM3 160616Z 15009KT 19/13 A3012 RMK A01 T01860127  RH  068%=      5-min Rain = 0
KAM3 160617Z 15009KT 19/13 A3012 RMK A01 T01860127  RH  068%=      5-min Rain = 0
KAM3 160618Z 15009KT 19/13 A3012 RMK A01 T01860127  RH  069%=      5-min Rain = 0
KAM3 160619Z 15009KT 19/13 A3012 RMK A01 T01860127  RH  069%=      5-min Rain = 0
KAM3 160620Z 15009KT 19/13 A3012 RMK A01 T01860127  RH  069%=      5-min Rain = 0
KAM3 160621Z 15009KT 19/13 A3012 RMK A01 T01850127  RH  069%=      5-min Rain = 0
KAM3 160622Z 15009KT 19/13 A3012 RMK A01 T01850127  RH  069%=      5-min Rain = 0
KAM3 160623Z 15009KT 18/13 A3012 RMK A01 T01840127  RH  069%=      5-min Rain = 0
KAM3 160624Z 15009KT 18/13 A3012 RMK A01 T01840127  RH  069%=      5-min Rain = 0
KAM3 160625Z 15009KT 18/13 A3012 RMK A01 T01840127  RH  069%=      5-min Rain = 0
KAM3 160626Z 15009KT 18/13 A3012 RMK A01 T01840127  RH  069%=      5-min Rain = 0
KAM3 160627Z 15008KT 18/13 A3012 RMK A01 T01840127  RH  069%=      5-min Rain = 0
KAM3 160628Z 15008KT 18/13 A3012 RMK A01 T01840127  RH  069%=      5-min Rain = 0
KAM3 160629Z 15008KT 18/13 A3012 RMK A01 T01840127  RH  069%=      5-min Rain = 0
KAM3 160630Z 15008KT 18/13 A3012 RMK A01 T01830127  RH  070%=      5-min Rain = 0
KAM3 160631Z 15007KT 18/13 A3012 RMK A01 T01820127  RH  070%=      5-min Rain = 0
KAM3 160632Z 15008KT 18/13 A3012 RMK A01 T01810127  RH  070%=      5-min Rain = 0
KAM3 160633Z 15008KT 18/13 A3012 RMK A01 T01810127  RH  071%=      5-min Rain = 0
KAM3 160634Z 15008KT 18/13 A3012 RMK A01 T01810127  RH  071%=      5-min Rain = 0
KAM3 160635Z 15008KT 18/13 A3012 RMK A01 T01800126  RH  071%=      5-min Rain = 0
KAM3 160636Z 15008KT 18/13 A3012 RMK A01 T01800126  RH  071%=      5-min Rain = 0
KAM3 160637Z 15008KT 18/13 A3012 RMK A01 T01800127  RH  071%=      5-min Rain = 0
KAM3 160638Z 15009KT 18/13 A3012 RMK A01 T01790127  RH  071%=      5-min Rain = 0
KAM3 160639Z 15009KT 18/13 A3012 RMK A01 T01790127  RH  072%=      5-min Rain = 0
KAM3 160640Z 15009KT 18/13 A3012 RMK A01 T01780126  RH  072%=      5-min Rain = 0
KAM3 160641Z 15009KT 18/13 A3012 RMK A01 T01780126  RH  072%=      5-min Rain = 0
KAM3 160642Z 15009KT 18/13 A3012 RMK A01 T01780127  RH  072%=      5-min Rain = 0
KAM3 160643Z 15008KT 18/13 A3012 RMK A01 T01770126  RH  072%=      5-min Rain = 0
KAM3 160644Z 15008KT 18/13 A3012 RMK A01 T01770126  RH  072%=      5-min Rain = 0
KAM3 160645Z 15009KT 18/13 A3012 RMK A01 T01770126  RH  072%=      5-min Rain = 0
KAM3 160646Z 15009KT 18/13 A3012 RMK A01 T01760126  RH  072%=      5-min Rain = 0
KAM3 160647Z 15008KT 18/13 A3012 RMK A01 T01760126  RH  072%=      5-min Rain = 0
KAM3 160648Z 15008KT 18/13 A3012 RMK A01 T01760126  RH  073%=      5-min Rain = 0
KAM3 160649Z 15008KT 18/13 A3012 RMK A01 T01760126  RH  073%=      5-min Rain = 0
KAM3 160650Z 15008KT 18/13 A3012 RMK A01 T01750126  RH  073%=      5-min Rain = 0
KAM3 160651Z 15009KT 18/13 A3012 RMK A01 T01760126  RH  073%=      5-min Rain = 0
KAM3 160652Z 15008KT 18/13 A3012 RMK A01 T01760126  RH  073%=      5-min Rain = 0
KAM3 160653Z 15008KT 18/13 A3012 RMK A01 T01760126  RH  072%=      5-min Rain = 0
KAM3 160654Z 15008KT 18/13 A3012 RMK A01 T01760126  RH  072%=      5-min Rain = 0
KAM3 160655Z 15008KT 18/13 A3012 RMK A01 T01760126  RH  072%=      5-min Rain = 0
KAM3 160656Z 15008KT 18/13 A3012 RMK A01 T01770126  RH  072%=      5-min Rain = 0
KAM3 160657Z 15007KT 18/13 A3012 RMK A01 T01770126  RH  072%=      5-min Rain = 0
KAM3 160658Z 15008KT 18/13 A3012 RMK A01 T01770126  RH  072%=      5-min Rain = 0
KAM3 160659Z 15008KT 18/13 A3012 RMK A01 T01760126  RH  072%=      5-min Rain = 0
KAM3 160700Z 15007KT 18/13 A3012 RMK A01 T01760126  RH  072%=      5-min Rain = 0
KAM3 160701Z 15008KT 18/13 A3012 RMK A01 T01760126  RH  072%=      5-min Rain = 0
KAM3 160702Z 15008KT 18/13 A3012 RMK A01 T01760126  RH  072%=      5-min Rain = 0
KAM3 160703Z 15007KT 18/13 A3012 RMK A01 T01760126  RH  072%=      5-min Rain = 0
KAM3 160704Z 15008KT 18/13 A3012 RMK A01 T01770126  RH  072%=      5-min Rain = 0
KAM3 160705Z 15007KT 18/13 A3012 RMK A01 T01760126  RH  072%=      5-min Rain = 0
KAM3 160706Z 15007KT 18/13 A3012 RMK A01 T01760126  RH  072%=      5-min Rain = 0
KAM3 160707Z 15007KT 18/13 A3012 RMK A01 T01770126  RH  072%=      5-min Rain = 0
KAM3 160708Z 15008KT 18/13 A3012 RMK A01 T01770126  RH  072%=      5-min Rain = 0
KAM3 160709Z 15007KT 18/13 A3012 RMK A01 T01770126  RH  072%=      5-min Rain = 0
KAM3 160710Z 15007KT 18/13 A3012 RMK A01 T01770126  RH  072%=      5-min Rain = 0
KAM3 160711Z 15007KT 18/13 A3012 RMK A01 T01770126  RH  072%=      5-min Rain = 0
KAM3 160712Z 16007KT 18/13 A3012 RMK A01 T01770126  RH  072%=      5-min Rain = 0
KAM3 160713Z 15006KT 18/13 A3012 RMK A01 T01760126  RH  072%=      5-min Rain = 0
KAM3 160714Z 15007KT 18/13 A3012 RMK A01 T01760126  RH  072%=      5-min Rain = 0
KAM3 160715Z 15007KT 18/13 A3012 RMK A01 T01760126  RH  073%=      5-min Rain = 0
KAM3 160716Z 15007KT 18/13 A3012 RMK A01 T01750126  RH  073%=      5-min Rain = 0
KAM3 160717Z 15006KT 18/13 A3012 RMK A01 T01750126  RH  073%=      5-min Rain = 0
KAM3 160718Z 15007KT 18/13 A3012 RMK A01 T01750126  RH  073%=      5-min Rain = 0
KAM3 160719Z 15007KT 17/13 A3012 RMK A01 T01740126  RH  073%=      5-min Rain = 0
KAM3 160720Z 15006KT 17/13 A3012 RMK A01 T01740125  RH  073%=      5-min Rain = 0
KAM3 160721Z 15007KT 17/13 A3012 RMK A01 T01740126  RH  073%=      5-min Rain = 0
KAM3 160722Z 14007KT 17/13 A3012 RMK A01 T01740126  RH  073%=      5-min Rain = 0
KAM3 160723Z 15007KT 17/13 A3012 RMK A01 T01730126  RH  074%=      5-min Rain = 0
KAM3 160724Z 15007KT 17/13 A3012 RMK A01 T01730126  RH  074%=      5-min Rain = 0
KAM3 160725Z 14007KT 17/13 A3012 RMK A01 T01730126  RH  074%=      5-min Rain = 0
KAM3 160726Z 14007KT 17/13 A3012 RMK A01 T01730126  RH  074%=      5-min Rain = 0
KAM3 160727Z 14007KT 17/13 A3012 RMK A01 T01720125  RH  074%=      5-min Rain = 0
KAM3 160728Z 14007KT 17/13 A3012 RMK A01 T01720125  RH  074%=      5-min Rain = 0
KAM3 160729Z 15007KT 17/13 A3012 RMK A01 T01720125  RH  074%=      5-min Rain = 0
KAM3 160730Z 15007KT 17/13 A3012 RMK A01 T01720125  RH  074%=      5-min Rain = 0
KAM3 160731Z 14007KT 17/13 A3012 RMK A01 T01730125  RH  074%=      5-min Rain = 0
KAM3 160732Z 15007KT 17/13 A3012 RMK A01 T01730125  RH  073%=      5-min Rain = 0
KAM3 160733Z 15007KT 17/13 A3012 RMK A01 T01730125  RH  073%=      5-min Rain = 0
KAM3 160734Z 15006KT 17/13 A3012 RMK A01 T01730125  RH  073%=      5-min Rain = 0
KAM3 160735Z 15007KT 17/13 A3012 RMK A01 T01730125  RH  073%=      5-min Rain = 0
KAM3 160736Z 15007KT 17/13 A3012 RMK A01 T01730125  RH  074%=      5-min Rain = 0
KAM3 160737Z 15007KT 17/13 A3012 RMK A01 T01720125  RH  074%=      5-min Rain = 0
KAM3 160738Z 15007KT 17/13 A3012 RMK A01 T01720125  RH  074%=      5-min Rain = 0
KAM3 160739Z 15007KT 17/13 A3012 RMK A01 T01710125  RH  074%=      5-min Rain = 0
KAM3 160740Z 15006KT 17/12 A3011 RMK A01 T01710124  RH  074%=      5-min Rain = 0
KAM3 160741Z 15006KT 17/13 A3011 RMK A01 T01710125  RH  074%=      5-min Rain = 0
KAM3 160742Z 15006KT 17/13 A3011 RMK A01 T01710125  RH  074%=      5-min Rain = 0
KAM3 160743Z 15006KT 17/13 A3011 RMK A01 T01710125  RH  074%=      5-min Rain = 0
KAM3 160744Z 15006KT 17/13 A3011 RMK A01 T01710125  RH  074%=      5-min Rain = 0
KAM3 160745Z 15005KT 17/12 A3011 RMK A01 T01710124  RH  074%=      5-min Rain = 0
KAM3 160746Z 15005KT 17/12 A3011 RMK A01 T01710124  RH  074%=      5-min Rain = 0
KAM3 160747Z 15006KT 17/12 A3011 RMK A01 T01710124  RH  074%=      5-min Rain = 0
KAM3 160748Z 15005KT 17/12 A3011 RMK A01 T01710124  RH  074%=      5-min Rain = 0
KAM3 160749Z 15005KT 17/12 A3011 RMK A01 T01710124  RH  074%=      5-min Rain = 0
KAM3 160750Z 15005KT 17/12 A3011 RMK A01 T01710124  RH  074%=      5-min Rain = 0
KAM3 160751Z 15007KT 17/12 A3011 RMK A01 T01700124  RH  074%=      5-min Rain = 0
KAM3 160752Z 16006KT 17/12 A3011 RMK A01 T01710124  RH  074%=      5-min Rain = 0
KAM3 160753Z 15007KT 17/12 A3011 RMK A01 T01710124  RH  074%=      5-min Rain = 0
KAM3 160754Z 16007KT 17/12 A3011 RMK A01 T01720124  RH  073%=      5-min Rain = 0
KAM3 160755Z 15007KT 17/12 A3011 RMK A01 T01720124  RH  073%=      5-min Rain = 0
KAM3 160756Z 15008KT 17/12 A3011 RMK A01 T01720124  RH  073%=      5-min Rain = 0
KAM3 160757Z 15008KT 17/12 A3011 RMK A01 T01730124  RH  073%=      5-min Rain = 0
KAM3 160758Z 15008KT 17/12 A3011 RMK A01 T01730124  RH  073%=      5-min Rain = 0
KAM3 160759Z 15008KT 17/12 A3011 RMK A01 T01720124  RH  073%=      5-min Rain = 0
KAM3 160800Z 15008KT 17/12 A301 RMK A01 T01720124  RH  073%=      5-min Rain = 0
KAM3 160801Z 15008KT 17/12 A301 RMK A01 T01720124  RH  073%=      5-min Rain = 0
KAM3 160802Z 15009KT 17/12 A301 RMK A01 T01720123  RH  073%=      5-min Rain = 0
KAM3 160803Z 15008KT 17/12 A301 RMK A01 T01730124  RH  073%=      5-min Rain = 0
KAM3 160804Z 15008KT 17/12 A301 RMK A01 T01730124  RH  073%=      5-min Rain = 0
KAM3 160805Z 15008KT 17/12 A301 RMK A01 T01720124  RH  073%=      5-min Rain = 0
KAM3 160806Z 15008KT 17/12 A301 RMK A01 T01710124  RH  073%=      5-min Rain = 0
KAM3 160807Z 15008KT 17/12 A301 RMK A01 T01710124  RH  073%=      5-min Rain = 0
KAM3 160808Z 15008KT 17/12 A301 RMK A01 T01710123  RH  073%=      5-min Rain = 0
KAM3 160809Z 15008KT 17/12 A301 RMK A01 T01710124  RH  073%=      5-min Rain = 0
KAM3 160810Z 16007KT 17/12 A301 RMK A01 T01710124  RH  074%=      5-min Rain = 0
KAM3 160811Z 15008KT 17/12 A301 RMK A01 T01710124  RH  074%=      5-min Rain = 0
KAM3 160812Z 15008KT 17/12 A301 RMK A01 T01700123  RH  074%=      5-min Rain = 0
KAM3 160813Z 15008KT 17/12 A301 RMK A01 T01700123  RH  074%=      5-min Rain = 0
KAM3 160814Z 15008KT 17/12 A301 RMK A01 T01700123  RH  074%=      5-min Rain = 0
KAM3 160815Z 15008KT 17/12 A301 RMK A01 T01700123  RH  074%=      5-min Rain = 0
KAM3 160816Z 15008KT 17/12 A301 RMK A01 T01700123  RH  074%=      5-min Rain = 0
KAM3 160817Z 15007KT 17/12 A301 RMK A01 T01700123  RH  074%=      5-min Rain = 0
KAM3 160818Z 15007KT 17/12 A301 RMK A01 T01700123  RH  074%=      5-min Rain = 0
KAM3 160819Z 15007KT 17/12 A301 RMK A01 T01690123  RH  074%=      5-min Rain = 0
KAM3 160820Z 16007KT 17/12 A301 RMK A01 T01680123  RH  074%=      5-min Rain = 0
KAM3 160821Z 16006KT 17/12 A301 RMK A01 T01680122  RH  075%=      5-min Rain = 0
KAM3 160822Z 16006KT 17/12 A301 RMK A01 T01670122  RH  075%=      5-min Rain = 0
KAM3 160823Z 16006KT 17/12 A301 RMK A01 T01670122  RH  075%=      5-min Rain = 0
KAM3 160824Z 16006KT 17/12 A301 RMK A01 T01660122  RH  075%=      5-min Rain = 0
KAM3 160825Z 16006KT 17/12 A301 RMK A01 T01660122  RH  075%=      5-min Rain = 0
KAM3 160826Z 15005KT 17/12 A301 RMK A01 T01650122  RH  076%=      5-min Rain = 0
KAM3 160827Z 15005KT 17/12 A301 RMK A01 T01650122  RH  076%=      5-min Rain = 0
KAM3 160828Z 15004KT 17/12 A301 RMK A01 T01650122  RH  076%=      5-min Rain = 0
KAM3 160829Z 15004KT 16/12 A301 RMK A01 T01640121  RH  076%=      5-min Rain = 0
KAM3 160830Z 15003KT 16/12 A301 RMK A01 T01640121  RH  076%=      5-min Rain = 0
KAM3 160831Z 16002KT 16/12 A301 RMK A01 T01630121  RH  076%=      5-min Rain = 0
KAM3 160832Z 15001KT 16/12 A301 RMK A01 T01630121  RH  076%=      5-min Rain = 0
KAM3 160833Z 35000KT 16/12 A301 RMK A01 T01620121  RH  077%=      5-min Rain = 0
KAM3 160834Z 34001KT 16/12 A301 RMK A01 T01600121  RH  078%=      5-min Rain = 0
KAM3 160835Z 33002KT 16/12 A301 RMK A01 T01590121  RH  078%=      5-min Rain = 0
KAM3 160836Z 31001KT 16/12 A301 RMK A01 T01580121  RH  078%=      5-min Rain = 0
KAM3 160837Z 31001KT 16/12 A301 RMK A01 T01570121  RH  079%=      5-min Rain = 0
KAM3 160838Z 30001KT 16/12 A301 RMK A01 T01560120  RH  079%=      5-min Rain = 0
KAM3 160839Z 29001KT 16/12 A301 RMK A01 T01560121  RH  080%=      5-min Rain = 0
KAM3 160840Z 25002KT 16/12 A301 RMK A01 T01560121  RH  079%=      5-min Rain = 0
KAM3 160841Z 23002KT 16/12 A301 RMK A01 T01610121  RH  077%=      5-min Rain = 0
KAM3 160842Z 22003KT 16/12 A301 RMK A01 T01620120  RH  076%=      5-min Rain = 0
KAM3 160843Z 24003KT 16/12 A301 RMK A01 T01620120  RH  076%=      5-min Rain = 0
KAM3 160844Z 22003KT 16/12 A301 RMK A01 T01630120  RH  076%=      5-min Rain = 0
KAM3 160845Z 22003KT 16/12 A301 RMK A01 T01640120  RH  075%=      5-min Rain = 0
KAM3 160846Z 23002KT 16/12 A301 RMK A01 T01640120  RH  075%=      5-min Rain = 0
KAM3 160847Z 25002KT 16/12 A301 RMK A01 T01640120  RH  075%=      5-min Rain = 0
KAM3 160848Z 25002KT 16/12 A301 RMK A01 T01640120  RH  075%=      5-min Rain = 0
KAM3 160849Z 21002KT 17/12 A301 RMK A01 T01650120  RH  075%=      5-min Rain = 0
KAM3 160850Z 20001KT 17/12 A301 RMK A01 T01650120  RH  075%=      5-min Rain = 0
KAM3 160851Z 21001KT 17/12 A301 RMK A01 T01660120  RH  074%=      5-min Rain = 0
KAM3 160852Z 21001KT 17/12 A301 RMK A01 T01660120  RH  074%=      5-min Rain = 0
KAM3 160853Z 22001KT 17/12 A301 RMK A01 T01670120  RH  074%=      5-min Rain = 0
KAM3 160854Z 23001KT 17/12 A301 RMK A01 T01660119  RH  074%=      5-min Rain = 0
KAM3 160855Z 24001KT 17/12 A301 RMK A01 T01650119  RH  074%=      5-min Rain = 0
KAM3 160856Z 23000KT 16/12 A301 RMK A01 T01630120  RH  075%=      5-min Rain = 0
KAM3 160857Z 31000KT 16/12 A301 RMK A01 T01620121  RH  076%=      5-min Rain = 0
KAM3 160858Z 31001KT 16/12 A301 RMK A01 T01610120  RH  077%=      5-min Rain = 0
KAM3 160859Z 31000KT 16/12 A301 RMK A01 T01600120  RH  077%=      5-min Rain = 0
KAM3 160900Z 31000KT 16/12 A301 RMK A01 T01590119  RH  077%=      5-min Rain = 0
KAM3 160901Z 31001KT 16/12 A301 RMK A01 T01580120  RH  078%=      5-min Rain = 0
KAM3 160902Z 31001KT 16/12 A301 RMK A01 T01570120  RH  078%=      5-min Rain = 0
KAM3 160903Z 31001KT 16/12 A301 RMK A01 T01570120  RH  079%=      5-min Rain = 0
KAM3 160904Z 31001KT 16/12 A301 RMK A01 T01570120  RH  078%=      5-min Rain = 0
KAM3 160905Z 31001KT 16/12 A301 RMK A01 T01580120  RH  078%=      5-min Rain = 0
KAM3 160906Z 31000KT 16/12 A301 RMK A01 T01580120  RH  078%=      5-min Rain = 0
KAM3 160907Z 31001KT 16/12 A301 RMK A01 T01590120  RH  078%=      5-min Rain = 0
KAM3 160908Z 31001KT 16/12 A301 RMK A01 T01590120  RH  077%=      5-min Rain = 0
KAM3 160909Z 31000KT 16/12 A301 RMK A01 T01590120  RH  078%=      5-min Rain = 0
KAM3 160910Z 00000KT 16/12 A301 RMK A01 T01580120  RH  078%=      5-min Rain = 0
KAM3 160911Z 15000KT 16/12 A301 RMK A01 T01580120  RH  078%=      5-min Rain = 0
KAM3 160912Z 15001KT 16/12 A301 RMK A01 T01580120  RH  078%=      5-min Rain = 0
KAM3 160913Z 14001KT 16/12 A301 RMK A01 T01580120  RH  078%=      5-min Rain = 0
KAM3 160914Z 15001KT 16/12 A301 RMK A01 T01580120  RH  078%=      5-min Rain = 0
KAM3 160915Z 15002KT 16/12 A3009 RMK A01 T01590120  RH  078%=      5-min Rain = 0
KAM3 160916Z 15002KT 16/12 A3009 RMK A01 T01600120  RH  077%=      5-min Rain = 0
KAM3 160917Z 15002KT 16/12 A3009 RMK A01 T01610120  RH  077%=      5-min Rain = 0
KAM3 160918Z 15003KT 16/12 A3009 RMK A01 T01620120  RH  076%=      5-min Rain = 0
KAM3 160919Z 15002KT 16/12 A3009 RMK A01 T01630120  RH  076%=      5-min Rain = 0
KAM3 160920Z 16002KT 16/12 A3009 RMK A01 T01640120  RH  075%=      5-min Rain = 0
KAM3 160921Z 16002KT 17/12 A3009 RMK A01 T01650120  RH  075%=      5-min Rain = 0
KAM3 160922Z 16002KT 17/12 A3009 RMK A01 T01650119  RH  074%=      5-min Rain = 0
KAM3 160923Z 16002KT 17/12 A3009 RMK A01 T01650119  RH  074%=      5-min Rain = 0
KAM3 160924Z 16002KT 17/12 A3009 RMK A01 T01650119  RH  074%=      5-min Rain = 0
KAM3 160925Z 16002KT 17/12 A3009 RMK A01 T01650119  RH  074%=      5-min Rain = 0
KAM3 160926Z 17002KT 17/12 A3009 RMK A01 T01650119  RH  074%=      5-min Rain = 0
KAM3 160927Z 17002KT 17/12 A3009 RMK A01 T01650119  RH  074%=      5-min Rain = 0
KAM3 160928Z 18002KT 17/12 A3009 RMK A01 T01650119  RH  074%=      5-min Rain = 0
KAM3 160929Z 18002KT 17/12 A3009 RMK A01 T01650119  RH  074%=      5-min Rain = 0
KAM3 160930Z 18002KT 17/12 A3009 RMK A01 T01650119  RH  074%=      5-min Rain = 0
KAM3 160931Z 17002KT 17/12 A3009 RMK A01 T01650119  RH  074%=      5-min Rain = 0
KAM3 160932Z 17002KT 17/12 A3009 RMK A01 T01650119  RH  074%=      5-min Rain = 0
KAM3 160933Z 17002KT 16/12 A3009 RMK A01 T01640119  RH  075%=      5-min Rain = 0
KAM3 160934Z 17001KT 16/12 A3009 RMK A01 T01620119  RH  076%=      5-min Rain = 0
KAM3 160935Z 17001KT 16/12 A3009 RMK A01 T01610120  RH  077%=      5-min Rain = 0
KAM3 160936Z 17000KT 16/12 A3009 RMK A01 T01590120  RH  077%=      5-min Rain = 0
KAM3 160937Z 00000KT 16/12 A3009 RMK A01 T01580120  RH  078%=      5-min Rain = 0
KAM3 160938Z 00000KT 16/12 A3009 RMK A01 T01580120  RH  078%=      5-min Rain = 0
KAM3 160939Z 00000KT 16/12 A3009 RMK A01 T01580120  RH  078%=      5-min Rain = 0
KAM3 160940Z 22000KT 16/12 A3009 RMK A01 T01580120  RH  078%=      5-min Rain = 0
KAM3 160941Z 22001KT 16/12 A3009 RMK A01 T01580120  RH  078%=      5-min Rain = 0
KAM3 160942Z 22001KT 16/12 A3009 RMK A01 T01570120  RH  078%=      5-min Rain = 0
KAM3 160943Z 22002KT 16/12 A3009 RMK A01 T01570120  RH  079%=      5-min Rain = 0
KAM3 160944Z 24002KT 16/12 A3009 RMK A01 T01570120  RH  079%=      5-min Rain = 0
KAM3 160945Z 24001KT 16/12 A3009 RMK A01 T01570120  RH  079%=      5-min Rain = 0
KAM3 160946Z 24001KT 16/12 A3009 RMK A01 T01570121  RH  079%=      5-min Rain = 0
KAM3 160947Z 26000KT 16/12 A3009 RMK A01 T01570121  RH  079%=      5-min Rain = 0
KAM3 160948Z 28000KT 16/12 A3009 RMK A01 T01570121  RH  079%=      5-min Rain = 0
KAM3 160949Z 28000KT 16/12 A3009 RMK A01 T01570120  RH  079%=      5-min Rain = 0
KAM3 160950Z 31000KT 16/12 A3009 RMK A01 T01580121  RH  079%=      5-min Rain = 0
KAM3 160951Z 33001KT 16/12 A3009 RMK A01 T01580121  RH  079%=      5-min Rain = 0
KAM3 160952Z 32001KT 16/12 A3009 RMK A01 T01580121  RH  079%=      5-min Rain = 0
KAM3 160953Z 28001KT 16/12 A3009 RMK A01 T01570121  RH  079%=      5-min Rain = 0
KAM3 160954Z 29001KT 16/12 A3009 RMK A01 T01570121  RH  079%=      5-min Rain = 0
KAM3 160955Z 27000KT 16/12 A3009 RMK A01 T01560121  RH  080%=      5-min Rain = 0
KAM3 160956Z 28000KT 16/12 A3009 RMK A01 T01560121  RH  080%=      5-min Rain = 0
KAM3 160957Z 18002KT 16/12 A3009 RMK A01 T01560121  RH  080%=      5-min Rain = 0
KAM3 160958Z 19002KT 16/12 A3009 RMK A01 T01550119  RH  079%=      5-min Rain = 0
KAM3 160959Z 20004KT 16/12 A3009 RMK A01 T01560118  RH  078%=      5-min Rain = 0
KAM3 161000Z 19003KT 16/12 A3009 RMK A01 T01570118  RH  077%=      5-min Rain = 0
KAM3 161001Z 19003KT 16/12 A3009 RMK A01 T01580118  RH  077%=      5-min Rain = 0
KAM3 161002Z 18002KT 16/12 A3009 RMK A01 T01580117  RH  077%=      5-min Rain = 0
KAM3 161003Z 18002KT 16/12 A3009 RMK A01 T01590117  RH  076%=      5-min Rain = 0
KAM3 161004Z 17003KT 16/12 A3009 RMK A01 T01580117  RH  077%=      5-min Rain = 0
KAM3 161005Z 17003KT 16/12 A3009 RMK A01 T01570116  RH  077%=      5-min Rain = 0
KAM3 161006Z 17003KT 16/12 A3009 RMK A01 T01570116  RH  077%=      5-min Rain = 0
KAM3 161007Z 17004KT 16/12 A3009 RMK A01 T01560116  RH  077%=      5-min Rain = 0
KAM3 161008Z 17004KT 16/12 A3009 RMK A01 T01560116  RH  077%=      5-min Rain = 0
KAM3 161009Z 17004KT 16/12 A3009 RMK A01 T01550116  RH  077%=      5-min Rain = 0
KAM3 161010Z 17005KT 16/12 A3009 RMK A01 T01550116  RH  077%=      5-min Rain = 0
KAM3 161011Z 17005KT 15/12 A3009 RMK A01 T01540115  RH  077%=      5-min Rain = 0
KAM3 161012Z 17006KT 15/12 A3009 RMK A01 T01540115  RH  078%=      5-min Rain = 0
KAM3 161013Z 17006KT 15/12 A3009 RMK A01 T01530115  RH  078%=      5-min Rain = 0
KAM3 161014Z 17006KT 15/11 A3009 RMK A01 T01520114  RH  078%=      5-min Rain = 0
KAM3 161015Z 17006KT 15/11 A3009 RMK A01 T01510114  RH  079%=      5-min Rain = 0
KAM3 161016Z 17006KT 15/11 A3009 RMK A01 T01500114  RH  079%=      5-min Rain = 0
KAM3 161017Z 17006KT 15/12 A3009 RMK A01 T01500115  RH  079%=      5-min Rain = 0
KAM3 161018Z 17006KT 15/12 A3009 RMK A01 T01500115  RH  079%=      5-min Rain = 0
KAM3 161019Z 17006KT 15/11 A3009 RMK A01 T01490114  RH  080%=      5-min Rain = 0
KAM3 161020Z 17005KT 15/11 A3009 RMK A01 T01480114  RH  080%=      5-min Rain = 0
KAM3 161021Z 16004KT 15/11 A3009 RMK A01 T01470114  RH  080%=      5-min Rain = 0
KAM3 161022Z 17005KT 15/11 A3009 RMK A01 T01460113  RH  081%=      5-min Rain = 0
KAM3 161023Z 16005KT 15/11 A3009 RMK A01 T01450113  RH  081%=      5-min Rain = 0
KAM3 161024Z 16005KT 15/11 A3009 RMK A01 T01450114  RH  081%=      5-min Rain = 0
KAM3 161025Z 16006KT 15/11 A3009 RMK A01 T01450114  RH  081%=      5-min Rain = 0
KAM3 161026Z 16006KT 15/11 A3009 RMK A01 T01460114  RH  081%=      5-min Rain = 0
KAM3 161027Z 16006KT 15/11 A3009 RMK A01 T01460114  RH  081%=      5-min Rain = 0
KAM3 161028Z 16006KT 15/11 A3009 RMK A01 T01470114  RH  081%=      5-min Rain = 0
KAM3 161029Z 16006KT 15/11 A3009 RMK A01 T01460114  RH  081%=      5-min Rain = 0
KAM3 161030Z 16006KT 15/11 A3009 RMK A01 T01460114  RH  081%=      5-min Rain = 0
KAM3 161031Z 16006KT 15/11 A3009 RMK A01 T01460114  RH  081%=      5-min Rain = 0
KAM3 161032Z 16006KT 15/11 A3009 RMK A01 T01450114  RH  082%=      5-min Rain = 0
KAM3 161033Z 15006KT 15/11 A3009 RMK A01 T01450114  RH  082%=      5-min Rain = 0
KAM3 161034Z 15006KT 15/11 A3009 RMK A01 T01450114  RH  082%=      5-min Rain = 0
KAM3 161035Z 15006KT 15/11 A3009 RMK A01 T01450114  RH  082%=      5-min Rain = 0
KAM3 161036Z 15006KT 15/11 A3009 RMK A01 T01450114  RH  082%=      5-min Rain = 0
KAM3 161037Z 15006KT 15/12 A3009 RMK A01 T01460115  RH  081%=      5-min Rain = 0
KAM3 161038Z 15006KT 15/11 A3009 RMK A01 T01460114  RH  081%=      5-min Rain = 0
KAM3 161039Z 15006KT 15/11 A3009 RMK A01 T01450113  RH  081%=      5-min Rain = 0
KAM3 161040Z 15006KT 14/11 A3009 RMK A01 T01440114  RH  082%=      5-min Rain = 0
KAM3 161041Z 15006KT 14/11 A3009 RMK A01 T01440113  RH  082%=      5-min Rain = 0
KAM3 161042Z 15005KT 14/11 A3009 RMK A01 T01430113  RH  082%=      5-min Rain = 0
KAM3 161043Z 15006KT 14/11 A3009 RMK A01 T01420113  RH  083%=      5-min Rain = 0
KAM3 161044Z 15006KT 14/11 A3009 RMK A01 T01420113  RH  083%=      5-min Rain = 0
KAM3 161045Z 15006KT 14/11 A3009 RMK A01 T01420113  RH  083%=      5-min Rain = 0
KAM3 161046Z 15006KT 14/11 A3009 RMK A01 T01420114  RH  083%=      5-min Rain = 0
KAM3 161047Z 16006KT 14/11 A3009 RMK A01 T01430114  RH  083%=      5-min Rain = 0
KAM3 161048Z 16006KT 14/11 A3009 RMK A01 T01430113  RH  083%=      5-min Rain = 0
KAM3 161049Z 16006KT 14/11 A3009 RMK A01 T01420113  RH  083%=      5-min Rain = 0
KAM3 161050Z 16006KT 14/11 A3009 RMK A01 T01410113  RH  083%=      5-min Rain = 0
KAM3 161051Z 16006KT 14/11 A3009 RMK A01 T01400113  RH  084%=      5-min Rain = 0
KAM3 161052Z 16007KT 14/11 A3009 RMK A01 T01400113  RH  084%=      5-min Rain = 0
KAM3 161053Z 16007KT 14/11 A3009 RMK A01 T01400113  RH  084%=      5-min Rain = 0
KAM3 161054Z 16007KT 14/11 A3009 RMK A01 T01400113  RH  084%=      5-min Rain = 0
KAM3 161055Z 16007KT 14/11 A3009 RMK A01 T01400113  RH  084%=      5-min Rain = 0
KAM3 161056Z 16007KT 14/11 A3009 RMK A01 T01390113  RH  084%=      5-min Rain = 0
KAM3 161057Z 16007KT 14/11 A3009 RMK A01 T01380113  RH  085%=      5-min Rain = 0
KAM3 161058Z 16007KT 14/11 A3009 RMK A01 T01380113  RH  085%=      5-min Rain = 0
KAM3 161059Z 16007KT 14/11 A3009 RMK A01 T01380113  RH  085%=      5-min Rain = 0
KAM3 161100Z 16006KT 14/11 A3009 RMK A01 T01380113  RH  085%=      5-min Rain = 0
KAM3 161101Z 16006KT 14/11 A3009 RMK A01 T01380113  RH  085%=      5-min Rain = 0
KAM3 161102Z 16006KT 14/11 A3009 RMK A01 T01380113  RH  085%=      5-min Rain = 0
KAM3 161103Z 16006KT 14/11 A3009 RMK A01 T01380113  RH  085%=      5-min Rain = 0
KAM3 161104Z 16007KT 14/11 A3009 RMK A01 T01380113  RH  085%=      5-min Rain = 0
KAM3 161105Z 16007KT 14/11 A3009 RMK A01 T01390113  RH  085%=      5-min Rain = 0
KAM3 161106Z 16008KT 14/11 A3009 RMK A01 T01390113  RH  084%=      5-min Rain = 0
KAM3 161107Z 17008KT 14/11 A3009 RMK A01 T01390113  RH  084%=      5-min Rain = 0
KAM3 161108Z 16008KT 14/11 A3009 RMK A01 T01400114  RH  084%=      5-min Rain = 0
KAM3 161109Z 16008KT 14/11 A3009 RMK A01 T01400114  RH  084%=      5-min Rain = 0
KAM3 161110Z 16008KT 14/11 A3009 RMK A01 T01400114  RH  084%=      5-min Rain = 0
KAM3 161111Z 17008KT 14/11 A3009 RMK A01 T01400113  RH  084%=      5-min Rain = 0
KAM3 161112Z 17008KT 14/11 A3009 RMK A01 T01400114  RH  084%=      5-min Rain = 0
KAM3 161113Z 17008KT 14/11 A3009 RMK A01 T01400114  RH  084%=      5-min Rain = 0
KAM3 161114Z 16008KT 14/11 A3009 RMK A01 T01400113  RH  084%=      5-min Rain = 0
KAM3 161115Z 16008KT 14/11 A3009 RMK A01 T01400113  RH  084%=      5-min Rain = 0
KAM3 161116Z 16008KT 14/11 A3009 RMK A01 T01400113  RH  084%=      5-min Rain = 0
KAM3 161117Z 17009KT 14/11 A3009 RMK A01 T01390113  RH  084%=      5-min Rain = 0
KAM3 161118Z 17008KT 14/11 A3009 RMK A01 T01390113  RH  084%=      5-min Rain = 0
KAM3 161119Z 17008KT 14/11 A3009 RMK A01 T01390113  RH  084%=      5-min Rain = 0
KAM3 161120Z 17008KT 14/11 A3009 RMK A01 T01390113  RH  084%=      5-min Rain = 0
KAM3 161121Z 17008KT 14/11 A3009 RMK A01 T01380113  RH  085%=      5-min Rain = 0
KAM3 161122Z 17008KT 14/11 A3009 RMK A01 T01380113  RH  085%=      5-min Rain = 0
KAM3 161123Z 17008KT 14/11 A3009 RMK A01 T01380113  RH  085%=      5-min Rain = 0
KAM3 161124Z 16008KT 14/11 A3009 RMK A01 T01380113  RH  085%=      5-min Rain = 0
KAM3 161125Z 17008KT 14/11 A3009 RMK A01 T01380113  RH  085%=      5-min Rain = 0
KAM3 161126Z 17008KT 14/11 A3009 RMK A01 T01370112  RH  085%=      5-min Rain = 0
KAM3 161127Z 17008KT 14/11 A3009 RMK A01 T01360112  RH  085%=      5-min Rain = 0
KAM3 161128Z 17008KT 14/11 A3009 RMK A01 T01360112  RH  085%=      5-min Rain = 0
KAM3 161129Z 17008KT 14/11 A3009 RMK A01 T01360111  RH  085%=      5-min Rain = 0
KAM3 161130Z 16008KT 14/11 A3009 RMK A01 T01350111  RH  085%=      5-min Rain = 0
KAM3 161131Z 17008KT 14/11 A3009 RMK A01 T01350111  RH  085%=      5-min Rain = 0
KAM3 161132Z 17007KT 14/11 A3009 RMK A01 T01350111  RH  085%=      5-min Rain = 0
KAM3 161133Z 17007KT 14/11 A3009 RMK A01 T01350111  RH  085%=      5-min Rain = 0
KAM3 161134Z 17007KT 13/11 A3009 RMK A01 T01340110  RH  086%=      5-min Rain = 0
KAM3 161135Z 17007KT 13/11 A3009 RMK A01 T01340110  RH  086%=      5-min Rain = 0
KAM3 161136Z 17007KT 13/11 A3009 RMK A01 T01330110  RH  086%=      5-min Rain = 0
KAM3 161137Z 17007KT 13/11 A3009 RMK A01 T01330110  RH  086%=      5-min Rain = 0
KAM3 161138Z 17007KT 13/11 A301 RMK A01 T01320110  RH  086%=      5-min Rain = 0
KAM3 161139Z 17007KT 13/11 A301 RMK A01 T01330110  RH  086%=      5-min Rain = 0
KAM3 161140Z 17007KT 13/11 A301 RMK A01 T01320110  RH  086%=      5-min Rain = 0
KAM3 161141Z 17007KT 13/11 A3009 RMK A01 T01320110  RH  086%=      5-min Rain = 0
KAM3 161142Z 17007KT 13/11 A3009 RMK A01 T01330110  RH  086%=      5-min Rain = 0
KAM3 161143Z 17007KT 13/11 A3009 RMK A01 T01330110  RH  086%=      5-min Rain = 0
KAM3 161144Z 17007KT 13/11 A301 RMK A01 T01330110  RH  086%=      5-min Rain = 0
KAM3 161145Z 17007KT 13/11 A301 RMK A01 T01330110  RH  086%=      5-min Rain = 0
KAM3 161146Z 17007KT 13/11 A301 RMK A01 T01330110  RH  086%=      5-min Rain = 0
KAM3 161147Z 17007KT 13/11 A3009 RMK A01 T01330110  RH  086%=      5-min Rain = 0
KAM3 161148Z 17007KT 13/11 A3009 RMK A01 T01330110  RH  086%=      5-min Rain = 0
KAM3 161149Z 17006KT 13/11 A301 RMK A01 T01330110  RH  086%=      5-min Rain = 0
KAM3 161150Z 17006KT 13/11 A301 RMK A01 T01330109  RH  086%=      5-min Rain = 0
KAM3 161151Z 17006KT 13/11 A301 RMK A01 T01320109  RH  086%=      5-min Rain = 0
KAM3 161152Z 17006KT 13/11 A301 RMK A01 T01320109  RH  086%=      5-min Rain = 0
KAM3 161153Z 17006KT 13/11 A301 RMK A01 T01320109  RH  086%=      5-min Rain = 0
KAM3 161154Z 17006KT 13/11 A301 RMK A01 T01310109  RH  086%=      5-min Rain = 0
KAM3 161155Z 17006KT 13/11 A301 RMK A01 T01310109  RH  086%=      5-min Rain = 0
KAM3 161156Z 17006KT 13/11 A301 RMK A01 T01310109  RH  086%=      5-min Rain = 0
KAM3 161157Z 17007KT 13/11 A301 RMK A01 T01310109  RH  087%=      5-min Rain = 0
KAM3 161158Z 17006KT 13/11 A301 RMK A01 T01310109  RH  086%=      5-min Rain = 0
KAM3 161159Z 17006KT 13/11 A301 RMK A01 T01310109  RH  086%=      5-min Rain = 0
KAM3 161200Z 17007KT 13/11 A301 RMK A01 T01310109  RH  086%=      5-min Rain = 0
KAM3 161201Z 17006KT 13/11 A301 RMK A01 T01310108  RH  086%=      5-min Rain = 0
KAM3 161202Z 17006KT 13/11 A301 RMK A01 T01300108  RH  086%=      5-min Rain = 0
KAM3 161203Z 17006KT 13/11 A301 RMK A01 T01300108  RH  087%=      5-min Rain = 0
KAM3 161204Z 17007KT 13/11 A301 RMK A01 T01300108  RH  087%=      5-min Rain = 0
KAM3 161205Z 17006KT 13/11 A301 RMK A01 T01300108  RH  087%=      5-min Rain = 0
KAM3 161206Z 17007KT 13/11 A301 RMK A01 T01300108  RH  086%=      5-min Rain = 0
KAM3 161207Z 17006KT 13/11 A301 RMK A01 T01300108  RH  086%=      5-min Rain = 0
KAM3 161208Z 17006KT 13/11 A301 RMK A01 T01300108  RH  086%=      5-min Rain = 0
KAM3 161209Z 17006KT 13/11 A301 RMK A01 T01300108  RH  087%=      5-min Rain = 0
KAM3 161210Z 17006KT 13/11 A301 RMK A01 T01300108  RH  087%=      5-min Rain = 0
KAM3 161211Z 17006KT 13/11 A301 RMK A01 T01300108  RH  087%=      5-min Rain = 0
KAM3 161212Z 17006KT 13/11 A301 RMK A01 T01290108  RH  087%=      5-min Rain = 0
KAM3 161213Z 17006KT 13/11 A301 RMK A01 T01290108  RH  087%=      5-min Rain = 0
KAM3 161214Z 17006KT 13/11 A301 RMK A01 T01290108  RH  087%=      5-min Rain = 0
KAM3 161215Z 17006KT 13/11 A301 RMK A01 T01290108  RH  087%=      5-min Rain = 0
KAM3 161216Z 17006KT 13/11 A301 RMK A01 T01280107  RH  087%=      5-min Rain = 0
KAM3 161217Z 17006KT 13/11 A301 RMK A01 T01280107  RH  087%=      5-min Rain = 0
KAM3 161218Z 17006KT 13/11 A301 RMK A01 T01270107  RH  087%=      5-min Rain = 0
KAM3 161219Z 17006KT 13/11 A301 RMK A01 T01270107  RH  087%=      5-min Rain = 0
KAM3 161220Z 17006KT 13/11 A301 RMK A01 T01270107  RH  088%=      5-min Rain = 0
KAM3 161221Z 17005KT 13/11 A301 RMK A01 T01260106  RH  088%=      5-min Rain = 0
KAM3 161222Z 17005KT 13/11 A301 RMK A01 T01250106  RH  088%=      5-min Rain = 0
KAM3 161223Z 16004KT 12/11 A301 RMK A01 T01240105  RH  088%=      5-min Rain = 0
KAM3 161224Z 16004KT 12/10 A301 RMK A01 T01230104  RH  088%=      5-min Rain = 0
KAM3 161225Z 16005KT 12/10 A301 RMK A01 T01220104  RH  089%=      5-min Rain = 0
KAM3 161226Z 17005KT 12/11 A301 RMK A01 T01220105  RH  089%=      5-min Rain = 0
KAM3 161227Z 17006KT 12/11 A301 RMK A01 T01210105  RH  090%=      5-min Rain = 0
KAM3 161228Z 17006KT 12/11 A301 RMK A01 T01220105  RH  090%=      5-min Rain = 0
KAM3 161229Z 17005KT 12/11 A301 RMK A01 T01210105  RH  090%=      5-min Rain = 0
KAM3 161230Z 18005KT 12/11 A301 RMK A01 T01210105  RH  090%=      5-min Rain = 0
KAM3 161231Z 18005KT 12/11 A301 RMK A01 T01220106  RH  090%=      5-min Rain = 0
KAM3 161232Z 17005KT 12/11 A301 RMK A01 T01220105  RH  090%=      5-min Rain = 0
KAM3 161233Z 17005KT 12/11 A301 RMK A01 T01220105  RH  089%=      5-min Rain = 0
KAM3 161234Z 17005KT 12/11 A301 RMK A01 T01230105  RH  089%=      5-min Rain = 0
KAM3 161235Z 17005KT 12/11 A301 RMK A01 T01230105  RH  089%=      5-min Rain = 0
KAM3 161236Z 16005KT 12/11 A301 RMK A01 T01230105  RH  089%=      5-min Rain = 0
KAM3 161237Z 16004KT 12/10 A301 RMK A01 T01210104  RH  089%=      5-min Rain = 0
KAM3 161238Z 15004KT 12/10 A301 RMK A01 T01200104  RH  090%=      5-min Rain = 0
KAM3 161239Z 16004KT 12/10 A3011 RMK A01 T01200104  RH  090%=      5-min Rain = 0
KAM3 161240Z 16004KT 12/10 A3011 RMK A01 T01190104  RH  090%=      5-min Rain = 0
KAM3 161241Z 17005KT 12/11 A3011 RMK A01 T01200105  RH  091%=      5-min Rain = 0
KAM3 161242Z 18005KT 12/11 A3011 RMK A01 T01200105  RH  091%=      5-min Rain = 0
KAM3 161243Z 18005KT 12/11 A3011 RMK A01 T01200105  RH  091%=      5-min Rain = 0
KAM3 161244Z 18005KT 12/11 A3011 RMK A01 T01210106  RH  091%=      5-min Rain = 0
KAM3 161245Z 18005KT 12/11 A3011 RMK A01 T01220106  RH  090%=      5-min Rain = 0
KAM3 161246Z 19005KT 12/11 A3011 RMK A01 T01230106  RH  089%=      5-min Rain = 0
KAM3 161247Z 19005KT 12/11 A3011 RMK A01 T01240106  RH  089%=      5-min Rain = 0
KAM3 161248Z 19004KT 12/11 A3011 RMK A01 T01240106  RH  089%=      5-min Rain = 0
KAM3 161249Z 19005KT 12/11 A3011 RMK A01 T01240106  RH  088%=      5-min Rain = 0
KAM3 161250Z 19005KT 13/11 A3011 RMK A01 T01250106  RH  088%=      5-min Rain = 0
KAM3 161251Z 18004KT 13/11 A3011 RMK A01 T01250106  RH  088%=      5-min Rain = 0
KAM3 161252Z 18004KT 13/11 A3011 RMK A01 T01260106  RH  088%=      5-min Rain = 0
KAM3 161253Z 18004KT 13/11 A3011 RMK A01 T01260106  RH  088%=      5-min Rain = 0
KAM3 161254Z 18004KT 13/11 A3011 RMK A01 T01260106  RH  087%=      5-min Rain = 0
KAM3 161255Z 18004KT 13/11 A3011 RMK A01 T01260106  RH  087%=      5-min Rain = 0
KAM3 161256Z 18004KT 13/11 A3011 RMK A01 T01260106  RH  088%=      5-min Rain = 0
KAM3 161257Z 19004KT 13/11 A3011 RMK A01 T01250106  RH  088%=      5-min Rain = 0
KAM3 161258Z 19004KT 13/11 A3011 RMK A01 T01260106  RH  088%=      5-min Rain = 0
KAM3 161259Z 20004KT 13/11 A3011 RMK A01 T01260106  RH  088%=      5-min Rain = 0
KAM3 161300Z 20004KT 13/11 A3011 RMK A01 T01260106  RH  088%=      5-min Rain = 0
KAM3 161301Z 20005KT 13/11 A3011 RMK A01 T01260106  RH  087%=      5-min Rain = 0
KAM3 161302Z 20005KT 13/11 A3011 RMK A01 T01260106  RH  087%=      5-min Rain = 0
KAM3 161303Z 20004KT 13/11 A3011 RMK A01 T01260106  RH  087%=      5-min Rain = 0
KAM3 161304Z 21004KT 13/11 A3011 RMK A01 T01260106  RH  087%=      5-min Rain = 0
KAM3 161305Z 22004KT 13/11 A3012 RMK A01 T01270106  RH  087%=      5-min Rain = 0
KAM3 161306Z 22003KT 13/11 A3012 RMK A01 T01270106  RH  087%=      5-min Rain = 0
KAM3 161307Z 22004KT 13/11 A3012 RMK A01 T01270106  RH  087%=      5-min Rain = 0
KAM3 161308Z 23004KT 13/11 A3012 RMK A01 T01270106  RH  087%=      5-min Rain = 0
KAM3 161309Z 24003KT 13/11 A3012 RMK A01 T01270106  RH  087%=      5-min Rain = 0
KAM3 161310Z 24003KT 13/11 A3012 RMK A01 T01260106  RH  087%=      5-min Rain = 0
KAM3 161311Z 25003KT 13/11 A3012 RMK A01 T01260106  RH  088%=      5-min Rain = 0
KAM3 161312Z 24003KT 13/11 A3012 RMK A01 T01260106  RH  088%=      5-min Rain = 0
KAM3 161313Z 24003KT 13/11 A3012 RMK A01 T01250106  RH  088%=      5-min Rain = 0
KAM3 161314Z 25003KT 13/11 A3012 RMK A01 T01250106  RH  088%=      5-min Rain = 0
KAM3 161315Z 25003KT 13/11 A3012 RMK A01 T01250106  RH  088%=      5-min Rain = 0
KAM3 161316Z 26003KT 13/11 A3012 RMK A01 T01250107  RH  088%=      5-min Rain = 0
KAM3 161317Z 26003KT 13/11 A3012 RMK A01 T01260107  RH  088%=      5-min Rain = 0
KAM3 161318Z 26003KT 13/11 A3012 RMK A01 T01250106  RH  088%=      5-min Rain = 0
KAM3 161319Z 26003KT 13/11 A3012 RMK A01 T01250107  RH  088%=      5-min Rain = 0
KAM3 161320Z 26003KT 13/11 A3012 RMK A01 T01250106  RH  089%=      5-min Rain = 0
KAM3 161321Z 26003KT 13/11 A3012 RMK A01 T01250107  RH  089%=      5-min Rain = 0
KAM3 161322Z 26003KT 13/11 A3012 RMK A01 T01250107  RH  089%=      5-min Rain = 0
KAM3 161323Z 27003KT 13/11 A3012 RMK A01 T01250107  RH  089%=      5-min Rain = 0
KAM3 161324Z 27002KT 13/11 A3012 RMK A01 T01250107  RH  089%=      5-min Rain = 0
KAM3 161325Z 28002KT 13/11 A3012 RMK A01 T01250107  RH  089%=      5-min Rain = 0
KAM3 161326Z 28002KT 13/11 A3012 RMK A01 T01250108  RH  089%=      5-min Rain = 0
KAM3 161327Z 28002KT 13/11 A3012 RMK A01 T01260109  RH  089%=      5-min Rain = 0
KAM3 161328Z 27002KT 13/11 A3012 RMK A01 T01260109  RH  089%=      5-min Rain = 0
KAM3 161329Z 26003KT 13/11 A3012 RMK A01 T01260108  RH  089%=      5-min Rain = 0
KAM3 161330Z 26002KT 13/11 A3012 RMK A01 T01260108  RH  089%=      5-min Rain = 0
KAM3 161331Z 26002KT 13/11 A3012 RMK A01 T01270109  RH  089%=      5-min Rain = 0
KAM3 161332Z 27002KT 13/11 A3012 RMK A01 T01270109  RH  089%=      5-min Rain = 0
KAM3 161333Z 29002KT 13/11 A3012 RMK A01 T01270109  RH  089%=      5-min Rain = 0
KAM3 161334Z 30002KT 13/11 A3012 RMK A01 T01280110  RH  089%=      5-min Rain = 0
KAM3 161335Z 30002KT 13/11 A3012 RMK A01 T01280111  RH  089%=      5-min Rain = 0
KAM3 161336Z 30001KT 13/11 A3012 RMK A01 T01290111  RH  089%=      5-min Rain = 0
KAM3 161337Z 28002KT 13/11 A3012 RMK A01 T01290111  RH  089%=      5-min Rain = 0
KAM3 161338Z 28002KT 13/11 A3012 RMK A01 T01290111  RH  089%=      5-min Rain = 0
KAM3 161339Z 26002KT 13/11 A3012 RMK A01 T01300112  RH  089%=      5-min Rain = 0
KAM3 161340Z 26002KT 13/11 A3012 RMK A01 T01300112  RH  089%=      5-min Rain = 0
KAM3 161341Z 27002KT 13/11 A3012 RMK A01 T01310111  RH  088%=      5-min Rain = 0
KAM3 161342Z 26002KT 13/11 A3012 RMK A01 T01310111  RH  088%=      5-min Rain = 0
KAM3 161343Z 26002KT 13/11 A3013 RMK A01 T01310112  RH  088%=      5-min Rain = 0
KAM3 161344Z 27002KT 13/11 A3013 RMK A01 T01320111  RH  087%=      5-min Rain = 0
KAM3 161345Z 28002KT 13/11 A3013 RMK A01 T01320111  RH  087%=      5-min Rain = 0
KAM3 161346Z 29002KT 13/11 A3013 RMK A01 T01320112  RH  087%=      5-min Rain = 0
KAM3 161347Z 27002KT 13/11 A3013 RMK A01 T01330111  RH  087%=      5-min Rain = 0
KAM3 161348Z 28002KT 13/11 A3013 RMK A01 T01330112  RH  087%=      5-min Rain = 0
KAM3 161349Z 28002KT 13/11 A3013 RMK A01 T01330113  RH  087%=      5-min Rain = 0
KAM3 161350Z 27002KT 13/11 A3013 RMK A01 T01340114  RH  088%=      5-min Rain = 0
KAM3 161351Z 28002KT 14/12 A3013 RMK A01 T01350115  RH  088%=      5-min Rain = 0
KAM3 161352Z 27002KT 14/12 A3013 RMK A01 T01350115  RH  088%=      5-min Rain = 0
KAM3 161353Z 27002KT 14/12 A3013 RMK A01 T01350116  RH  088%=      5-min Rain = 0
KAM3 161354Z 27002KT 14/11 A3013 RMK A01 T01360114  RH  087%=      5-min Rain = 0
KAM3 161355Z 29003KT 14/12 A3013 RMK A01 T01360115  RH  087%=      5-min Rain = 0
KAM3 161356Z 29003KT 14/12 A3013 RMK A01 T01360115  RH  087%=      5-min Rain = 0
KAM3 161357Z 31002KT 14/12 A3013 RMK A01 T01360115  RH  088%=      5-min Rain = 0
KAM3 161358Z 29002KT 14/12 A3013 RMK A01 T01360116  RH  088%=      5-min Rain = 0
KAM3 161359Z 30002KT 14/12 A3013 RMK A01 T01360116  RH  088%=      5-min Rain = 0
KAM3 161400Z 29003KT 14/12 A3013 RMK A01 T01370117  RH  088%=      5-min Rain = 0
KAM3 161401Z 29003KT 14/12 A3013 RMK A01 T01380117  RH  087%=      5-min Rain = 0
KAM3 161402Z 29002KT 14/12 A3013 RMK A01 T01380118  RH  088%=      5-min Rain = 0
KAM3 161403Z 28003KT 14/12 A3013 RMK A01 T01390120  RH  088%=      5-min Rain = 0
KAM3 161404Z 28003KT 14/12 A3013 RMK A01 T01400121  RH  088%=      5-min Rain = 0
KAM3 161405Z 28002KT 14/12 A3013 RMK A01 T01410120  RH  087%=      5-min Rain = 0
KAM3 161406Z 28003KT 14/12 A3013 RMK A01 T01410120  RH  087%=      5-min Rain = 0
KAM3 161407Z 29003KT 14/12 A3013 RMK A01 T01420123  RH  088%=      5-min Rain = 0
KAM3 161408Z 29003KT 14/12 A3013 RMK A01 T01430122  RH  087%=      5-min Rain = 0
KAM3 161409Z 29004KT 14/12 A3013 RMK A01 T01430122  RH  087%=      5-min Rain = 0
KAM3 161410Z 29003KT 14/12 A3013 RMK A01 T01440123  RH  087%=      5-min Rain = 0
KAM3 161411Z 28003KT 15/12 A3013 RMK A01 T01450124  RH  087%=      5-min Rain = 0
KAM3 161412Z 28003KT 15/12 A3013 RMK A01 T01460124  RH  087%=      5-min Rain = 0
KAM3 161413Z 28003KT 15/12 A3013 RMK A01 T01460123  RH  086%=      5-min Rain = 0
KAM3 161414Z 29003KT 15/12 A3013 RMK A01 T01460123  RH  086%=      5-min Rain = 0
KAM3 161415Z 29004KT 15/13 A3013 RMK A01 T01470125  RH  087%=      5-min Rain = 0
KAM3 161416Z 29005KT 15/13 A3013 RMK A01 T01480125  RH  086%=      5-min Rain = 0
KAM3 161417Z 30005KT 15/12 A3013 RMK A01 T01480124  RH  086%=      5-min Rain = 0
KAM3 161418Z 30005KT 15/12 A3013 RMK A01 T01480124  RH  086%=      5-min Rain = 0
KAM3 161419Z 29005KT 15/13 A3013 RMK A01 T01480126  RH  087%=      5-min Rain = 0
KAM3 161420Z 29005KT 15/13 A3013 RMK A01 T01490125  RH  086%=      5-min Rain = 0
KAM3 161421Z 30005KT 15/13 A3013 RMK A01 T01490126  RH  086%=      5-min Rain = 0
KAM3 161422Z 29005KT 15/13 A3013 RMK A01 T01490125  RH  086%=      5-min Rain = 0
KAM3 161423Z 30006KT 15/13 A3014 RMK A01 T01490126  RH  086%=      5-min Rain = 0
KAM3 161424Z 30005KT 15/13 A3014 RMK A01 T01500127  RH  086%=      5-min Rain = 0
KAM3 161425Z 29006KT 15/13 A3014 RMK A01 T01510128  RH  086%=      5-min Rain = 0
KAM3 161426Z 30005KT 15/13 A3014 RMK A01 T01510127  RH  085%=      5-min Rain = 0
KAM3 161427Z 31006KT 15/13 A3014 RMK A01 T01510126  RH  085%=      5-min Rain = 0
KAM3 161428Z 30005KT 15/13 A3014 RMK A01 T01510128  RH  086%=      5-min Rain = 0
KAM3 161429Z 30005KT 15/13 A3014 RMK A01 T01520127  RH  085%=      5-min Rain = 0
KAM3 161430Z 32006KT 15/13 A3014 RMK A01 T01520127  RH  085%=      5-min Rain = 0
KAM3 161431Z 32005KT 15/13 A3014 RMK A01 T01520127  RH  085%=      5-min Rain = 0
KAM3 161432Z 31005KT 15/13 A3014 RMK A01 T01510126  RH  085%=      5-min Rain = 0
KAM3 161433Z 31005KT 15/13 A3014 RMK A01 T01510127  RH  085%=      5-min Rain = 0
KAM3 161434Z 31004KT 15/13 A3014 RMK A01 T01510128  RH  086%=      5-min Rain = 0
KAM3 161435Z 29003KT 15/13 A3014 RMK A01 T01520128  RH  085%=      5-min Rain = 0
KAM3 161436Z 30004KT 15/13 A3014 RMK A01 T01530128  RH  085%=      5-min Rain = 0
KAM3 161437Z 30004KT 15/13 A3014 RMK A01 T01530127  RH  085%=      5-min Rain = 0
KAM3 161438Z 31005KT 15/13 A3014 RMK A01 T01530127  RH  084%=      5-min Rain = 0
KAM3 161439Z 31005KT 15/13 A3014 RMK A01 T01540126  RH  083%=      5-min Rain = 0
KAM3 161440Z 30006KT 15/13 A3014 RMK A01 T01540126  RH  083%=      5-min Rain = 0
KAM3 161441Z 30005KT 16/13 A3014 RMK A01 T01550126  RH  083%=      5-min Rain = 0
KAM3 161442Z 30004KT 16/13 A3014 RMK A01 T01550127  RH  083%=      5-min Rain = 0
KAM3 161443Z 29004KT 16/13 A3014 RMK A01 T01550126  RH  083%=      5-min Rain = 0
KAM3 161444Z 27003KT 16/13 A3014 RMK A01 T01560127  RH  083%=      5-min Rain = 0
KAM3 161445Z 28004KT 16/13 A3014 RMK A01 T01570126  RH  082%=      5-min Rain = 0
KAM3 161446Z 30004KT 16/13 A3014 RMK A01 T01570127  RH  082%=      5-min Rain = 0
KAM3 161447Z 30004KT 16/13 A3014 RMK A01 T01580127  RH  082%=      5-min Rain = 0
KAM3 161448Z 31004KT 16/13 A3015 RMK A01 T01580127  RH  082%=      5-min Rain = 0
KAM3 161449Z 30004KT 16/13 A3014 RMK A01 T01580128  RH  082%=      5-min Rain = 0
KAM3 161450Z 29004KT 16/13 A3014 RMK A01 T01590128  RH  082%=      5-min Rain = 0
KAM3 161451Z 30003KT 16/13 A3014 RMK A01 T01600127  RH  081%=      5-min Rain = 0
KAM3 161452Z 28004KT 16/13 A3015 RMK A01 T01590127  RH  082%=      5-min Rain = 0
KAM3 161453Z 28003KT 16/13 A3015 RMK A01 T01600128  RH  081%=      5-min Rain = 0
KAM3 161454Z 28004KT 16/13 A3015 RMK A01 T01610128  RH  081%=      5-min Rain = 0
KAM3 161455Z 28003KT 16/13 A3015 RMK A01 T01620130  RH  081%=      5-min Rain = 0
KAM3 161456Z 30003KT 16/13 A3015 RMK A01 T01630129  RH  080%=      5-min Rain = 0
KAM3 161457Z 30003KT 16/13 A3015 RMK A01 T01630130  RH  081%=      5-min Rain = 0
KAM3 161458Z 30005KT 17/13 A3015 RMK A01 T01650131  RH  080%=      5-min Rain = 0
KAM3 161459Z 30005KT 17/13 A3015 RMK A01 T01650129  RH  079%=      5-min Rain = 0
KAM3 161500Z 29004KT 17/13 A3015 RMK A01 T01650129  RH  079%=      5-min Rain = 0
KAM3 161501Z 29004KT 16/13 A3015 RMK A01 T01640131  RH  081%=      5-min Rain = 0
KAM3 161502Z 31004KT 17/13 A3015 RMK A01 T01650129  RH  079%=      5-min Rain = 0
KAM3 161503Z 31004KT 17/13 A3015 RMK A01 T01660130  RH  079%=      5-min Rain = 0
KAM3 161504Z 31005KT 17/13 A3015 RMK A01 T01660130  RH  079%=      5-min Rain = 0
KAM3 161505Z 32004KT 17/13 A3015 RMK A01 T01670130  RH  079%=      5-min Rain = 0
KAM3 161506Z 31003KT 17/13 A3015 RMK A01 T01670131  RH  079%=      5-min Rain = 0
KAM3 161507Z 30004KT 17/13 A3015 RMK A01 T01680131  RH  079%=      5-min Rain = 0
KAM3 161508Z 29004KT 17/13 A3015 RMK A01 T01690132  RH  079%=      5-min Rain = 0
KAM3 161509Z 27003KT 17/13 A3015 RMK A01 T01690129  RH  077%=      5-min Rain = 0
KAM3 161510Z 28002KT 17/13 A3015 RMK A01 T01690131  RH  078%=      5-min Rain = 0
KAM3 161511Z 31002KT 17/13 A3015 RMK A01 T01690133  RH  079%=      5-min Rain = 0
KAM3 161512Z 34003KT 17/14 A3016 RMK A01 T01720135  RH  079%=      5-min Rain = 0
KAM3 161513Z 32002KT 17/14 A3016 RMK A01 T01740135  RH  078%=      5-min Rain = 0
KAM3 161514Z 30002KT 18/13 A3016 RMK A01 T01750132  RH  076%=      5-min Rain = 0
KAM3 161515Z 30004KT 18/13 A3016 RMK A01 T01760131  RH  075%=      5-min Rain = 0
KAM3 161516Z 29005KT 18/13 A3016 RMK A01 T01760132  RH  075%=      5-min Rain = 0
KAM3 161517Z 30003KT 18/13 A3016 RMK A01 T01760131  RH  075%=      5-min Rain = 0
KAM3 161518Z 32003KT 18/13 A3016 RMK A01 T01760132  RH  075%=      5-min Rain = 0
KAM3 161519Z 33003KT 18/13 A3016 RMK A01 T01760130  RH  075%=      5-min Rain = 0
KAM3 161520Z 30003KT 18/13 A3016 RMK A01 T01760133  RH  076%=      5-min Rain = 0
KAM3 161521Z 29003KT 18/13 A3016 RMK A01 T01770131  RH  074%=      5-min Rain = 0
KAM3 161522Z 31002KT 18/13 A3016 RMK A01 T01770130  RH  074%=      5-min Rain = 0
KAM3 161523Z 31001KT 18/13 A3016 RMK A01 T01780133  RH  075%=      5-min Rain = 0
KAM3 161524Z 30003KT 18/13 A3016 RMK A01 T01790131  RH  073%=      5-min Rain = 0
KAM3 161525Z 31004KT 18/13 A3016 RMK A01 T01800131  RH  073%=      5-min Rain = 0
KAM3 161526Z 29003KT 18/13 A3016 RMK A01 T01800129  RH  072%=      5-min Rain = 0
KAM3 161527Z 29004KT 18/13 A3016 RMK A01 T01790130  RH  073%=      5-min Rain = 0
KAM3 161528Z 29003KT 18/13 A3016 RMK A01 T01790131  RH  073%=      5-min Rain = 0
KAM3 161529Z 30004KT 18/13 A3016 RMK A01 T01790131  RH  073%=      5-min Rain = 0
KAM3 161530Z 32003KT 18/13 A3016 RMK A01 T01800129  RH  072%=      5-min Rain = 0
KAM3 161531Z 33003KT 18/13 A3016 RMK A01 T01810131  RH  073%=      5-min Rain = 0
KAM3 161532Z 33003KT 18/13 A3016 RMK A01 T01820132  RH  073%=      5-min Rain = 0
KAM3 161533Z 30003KT 18/13 A3016 RMK A01 T01840132  RH  072%=      5-min Rain = 0
KAM3 161534Z 30004KT 19/13 A3016 RMK A01 T01850133  RH  071%=      5-min Rain = 0
KAM3 161535Z 29003KT 19/13 A3016 RMK A01 T01860134  RH  072%=      5-min Rain = 0
KAM3 161536Z 31001KT 19/13 A3016 RMK A01 T01860131  RH  070%=      5-min Rain = 0
KAM3 161537Z 32001KT 19/13 A3016 RMK A01 T01860133  RH  071%=      5-min Rain = 0
KAM3 161538Z 32002KT 19/13 A3016 RMK A01 T01880133  RH  071%=      5-min Rain = 0
KAM3 161539Z 32001KT 19/13 A3016 RMK A01 T01890133  RH  070%=      5-min Rain = 0
KAM3 161540Z 34002KT 19/13 A3016 RMK A01 T01890132  RH  070%=      5-min Rain = 0
KAM3 161541Z 32001KT 19/13 A3016 RMK A01 T01890133  RH  070%=      5-min Rain = 0
KAM3 161542Z 29003KT 19/13 A3016 RMK A01 T01900133  RH  069%=      5-min Rain = 0
KAM3 161543Z 30001KT 19/13 A3016 RMK A01 T01910133  RH  069%=      5-min Rain = 0
KAM3 161544Z 28001KT 19/13 A3016 RMK A01 T01920134  RH  069%=      5-min Rain = 0
KAM3 161545Z 28001KT 19/13 A3016 RMK A01 T01940134  RH  068%=      5-min Rain = 0
KAM3 161546Z 31002KT 20/13 A3016 RMK A01 T01950134  RH  068%=      5-min Rain = 0
KAM3 161547Z 32004KT 20/14 A3016 RMK A01 T01950135  RH  068%=      5-min Rain = 0
KAM3 161548Z 33003KT 20/13 A3016 RMK A01 T01950132  RH  067%=      5-min Rain = 0
KAM3 161549Z 34002KT 19/13 A3016 RMK A01 T01940133  RH  068%=      5-min Rain = 0
KAM3 161550Z 33001KT 20/14 A3016 RMK A01 T01950135  RH  068%=      5-min Rain = 0
KAM3 161551Z 34001KT 20/13 A3016 RMK A01 T01950134  RH  067%=      5-min Rain = 0
KAM3 161552Z 35000KT 20/13 A3016 RMK A01 T01960133  RH  067%=      5-min Rain = 0
KAM3 161553Z 21001KT 20/13 A3016 RMK A01 T01970132  RH  066%=      5-min Rain = 0
KAM3 161554Z 23001KT 20/14 A3016 RMK A01 T01980135  RH  067%=      5-min Rain = 0
KAM3 161555Z 21000KT 20/13 A3016 RMK A01 T01990133  RH  066%=      5-min Rain = 0
KAM3 161556Z 05001KT 20/13 A3016 RMK A01 T01990133  RH  066%=      5-min Rain = 0
KAM3 161557Z 05003KT 20/14 A3016 RMK A01 T02010135  RH  066%=      5-min Rain = 0
KAM3 161558Z 06002KT 20/13 A3016 RMK A01 T02020132  RH  064%=      5-min Rain = 0
KAM3 161559Z 07003KT 20/13 A3016 RMK A01 T02030131  RH  064%=      5-min Rain = 0
KAM3 161600Z 08002KT 20/13 A3016 RMK A01 T02030134  RH  064%=      5-min Rain = 0
KAM3 161601Z 11002KT 20/13 A3016 RMK A01 T02030134  RH  064%=      5-min Rain = 0
KAM3 161602Z 12002KT 20/14 A3016 RMK A01 T02040135  RH  064%=      5-min Rain = 0
KAM3 161603Z 11002KT 21/13 A3016 RMK A01 T02060134  RH  063%=      5-min Rain = 0
KAM3 161604Z 13002KT 21/14 A3016 RMK A01 T02060135  RH  064%=      5-min Rain = 0
KAM3 161605Z 10002KT 21/14 A3016 RMK A01 T02080136  RH  064%=      5-min Rain = 0
KAM3 161606Z 04001KT 21/14 A3016 RMK A01 T02090136  RH  063%=      5-min Rain = 0
KAM3 161607Z 04002KT 21/14 A3016 RMK A01 T02110138  RH  063%=      5-min Rain = 0
KAM3 161608Z 06002KT 21/14 A3016 RMK A01 T02120137  RH  062%=      5-min Rain = 0
KAM3 161609Z 07002KT 21/14 A3016 RMK A01 T02130137  RH  062%=      5-min Rain = 0
KAM3 161610Z 04003KT 21/14 A3016 RMK A01 T02130135  RH  061%=      5-min Rain = 0
KAM3 161611Z 02004KT 21/13 A3016 RMK A01 T02140133  RH  060%=      5-min Rain = 0
KAM3 161612Z 02003KT 21/13 A3016 RMK A01 T02140132  RH  060%=      5-min Rain = 0
KAM3 161613Z 02003KT 21/13 A3016 RMK A01 T02130133  RH  060%=      5-min Rain = 0
KAM3 161614Z 01002KT 21/13 A3016 RMK A01 T02120133  RH  061%=      5-min Rain = 0
KAM3 161615Z 36003KT 21/13 A3017 RMK A01 T02120134  RH  061%=      5-min Rain = 0
KAM3 161616Z 01002KT 21/13 A3017 RMK A01 T02120134  RH  061%=      5-min Rain = 0
KAM3 161617Z 01002KT 21/14 A3016 RMK A01 T02120135  RH  061%=      5-min Rain = 0
KAM3 161618Z 05002KT 21/14 A3016 RMK A01 T02130137  RH  062%=      5-min Rain = 0
KAM3 161619Z 09003KT 21/14 A3016 RMK A01 T02140138  RH  062%=      5-min Rain = 0
KAM3 161620Z 10003KT 22/14 A3016 RMK A01 T02160140  RH  062%=      5-min Rain = 0
KAM3 161621Z 07004KT 22/14 A3016 RMK A01 T02180138  RH  061%=      5-min Rain = 0
KAM3 161622Z 07004KT 22/14 A3016 RMK A01 T02180136  RH  059%=      5-min Rain = 0
KAM3 161623Z 07004KT 22/14 A3016 RMK A01 T02180137  RH  060%=      5-min Rain = 0
KAM3 161624Z 07004KT 22/14 A3016 RMK A01 T02170138  RH  061%=      5-min Rain = 0
KAM3 161625Z 06003KT 22/14 A3016 RMK A01 T02170137  RH  060%=      5-min Rain = 0
KAM3 161626Z 06003KT 22/14 A3016 RMK A01 T02170137  RH  060%=      5-min Rain = 0
KAM3 161627Z 04004KT 22/14 A3016 RMK A01 T02170140  RH  061%=      5-min Rain = 0
KAM3 161628Z 05004KT 22/14 A3016 RMK A01 T02170139  RH  061%=      5-min Rain = 0
KAM3 161629Z 06004KT 22/14 A3016 RMK A01 T02180139  RH  061%=      5-min Rain = 0
KAM3 161630Z 06004KT 22/14 A3016 RMK A01 T02180141  RH  062%=      5-min Rain = 0
KAM3 161631Z 04004KT 22/14 A3016 RMK A01 T02190141  RH  061%=      5-min Rain = 0
KAM3 161632Z 00005KT 22/14 A3016 RMK A01 T02200140  RH  060%=      5-min Rain = 0
KAM3 161633Z 01005KT 22/14 A3016 RMK A01 T02210137  RH  059%=      5-min Rain = 0
KAM3 161634Z 35005KT 22/14 A3016 RMK A01 T02200139  RH  060%=      5-min Rain = 0
KAM3 161635Z 35004KT 22/14 A3016 RMK A01 T02210138  RH  059%=      5-min Rain = 0
KAM3 161636Z 03003KT 22/14 A3016 RMK A01 T02220137  RH  058%=      5-min Rain = 0
KAM3 161637Z 34003KT 22/14 A3016 RMK A01 T02220138  RH  059%=      5-min Rain = 0
KAM3 161638Z 36003KT 22/14 A3016 RMK A01 T02230139  RH  059%=      5-min Rain = 0
KAM3 161639Z 34003KT 22/14 A3016 RMK A01 T02240139  RH  058%=      5-min Rain = 0
KAM3 161640Z 01002KT 23/14 A3016 RMK A01 T02250142  RH  059%=      5-min Rain = 0
KAM3 161641Z 06002KT 23/14 A3016 RMK A01 T02270141  RH  058%=      5-min Rain = 0
KAM3 161642Z 07004KT 23/14 A3016 RMK A01 T02290143  RH  058%=      5-min Rain = 0
KAM3 161643Z 08004KT 23/14 A3016 RMK A01 T02300141  RH  057%=      5-min Rain = 0
KAM3 161644Z 12003KT 23/14 A3016 RMK A01 T02290138  RH  056%=      5-min Rain = 0
KAM3 161645Z 09001KT 23/14 A3016 RMK A01 T02280142  RH  058%=      5-min Rain = 0
KAM3 161646Z 36004KT 23/14 A3016 RMK A01 T02300139  RH  057%=      5-min Rain = 0
KAM3 161647Z 36004KT 23/14 A3016 RMK A01 T02290136  RH  056%=      5-min Rain = 0
KAM3 161648Z 02005KT 23/14 A3016 RMK A01 T02280136  RH  056%=      5-min Rain = 0
KAM3 161649Z 02005KT 23/14 A3017 RMK A01 T02270138  RH  057%=      5-min Rain = 0
KAM3 161650Z 04002KT 23/14 A3016 RMK A01 T02260135  RH  057%=      5-min Rain = 0
KAM3 161651Z 02002KT 23/14 A3016 RMK A01 T02260138  RH  058%=      5-min Rain = 0
KAM3 161652Z 04005KT 23/14 A3016 RMK A01 T02270141  RH  058%=      5-min Rain = 0
KAM3 161653Z 02006KT 23/14 A3017 RMK A01 T02310143  RH  058%=      5-min Rain = 0
KAM3 161654Z 04006KT 23/14 A3017 RMK A01 T02320140  RH  056%=      5-min Rain = 0
KAM3 161655Z 03006KT 23/14 A3017 RMK A01 T02320138  RH  056%=      5-min Rain = 0
KAM3 161656Z 01003KT 23/14 A3017 RMK A01 T02300136  RH  055%=      5-min Rain = 0
KAM3 161657Z 34003KT 23/14 A3017 RMK A01 T02280139  RH  057%=      5-min Rain = 0
KAM3 161658Z 00002KT 23/14 A3017 RMK A01 T02280138  RH  057%=      5-min Rain = 0
KAM3 161659Z 03005KT 23/14 A3017 RMK A01 T02300143  RH  058%=      5-min Rain = 0
KAM3 161700Z 35003KT 23/14 A3017 RMK A01 T02330143  RH  057%=      5-min Rain = 0
KAM3 161701Z 36005KT 24/14 A3017 RMK A01 T02360142  RH  055%=      5-min Rain = 0
KAM3 161702Z 35006KT 24/14 A3017 RMK A01 T02370139  RH  054%=      5-min Rain = 0
KAM3 161703Z 34006KT 24/14 A3017 RMK A01 T02350138  RH  055%=      5-min Rain = 0
KAM3 161704Z 35006KT 23/14 A3017 RMK A01 T02340139  RH  055%=      5-min Rain = 0
KAM3 161705Z 36005KT 23/14 A3017 RMK A01 T02340140  RH  056%=      5-min Rain = 0
KAM3 161706Z 36004KT 24/14 A3017 RMK A01 T02350138  RH  055%=      5-min Rain = 0
KAM3 161707Z 36003KT 24/14 A3017 RMK A01 T02360137  RH  054%=      5-min Rain = 0
KAM3 161708Z 02003KT 24/14 A3016 RMK A01 T02360142  RH  056%=      5-min Rain = 0
KAM3 161709Z 05003KT 24/15 A3016 RMK A01 T02390145  RH  056%=      5-min Rain = 0
KAM3 161710Z 01006KT 24/14 A3016 RMK A01 T02410141  RH  054%=      5-min Rain = 0
KAM3 161711Z 36005KT 24/14 A3016 RMK A01 T02400139  RH  053%=      5-min Rain = 0
KAM3 161712Z 35004KT 24/14 A3016 RMK A01 T02390136  RH  052%=      5-min Rain = 0
KAM3 161713Z 36004KT 24/14 A3016 RMK A01 T02370136  RH  053%=      5-min Rain = 0
KAM3 161714Z 04004KT 24/14 A3016 RMK A01 T02380138  RH  054%=      5-min Rain = 0
KAM3 161715Z 05005KT 24/14 A3016 RMK A01 T02400141  RH  054%=      5-min Rain = 0
KAM3 161716Z 03006KT 24/14 A3016 RMK A01 T02430143  RH  054%=      5-min Rain = 0
KAM3 161717Z 01008KT 24/14 A3016 RMK A01 T02440140  RH  052%=      5-min Rain = 0
KAM3 161718Z 01006KT 25/14 A3016 RMK A01 T02450137  RH  051%=      5-min Rain = 0
KAM3 161719Z 01003KT 24/13 A3016 RMK A01 T02430134  RH  050%=      5-min Rain = 0
KAM3 161720Z 33003KT 24/14 A3016 RMK A01 T02420138  RH  052%=      5-min Rain = 0
KAM3 161721Z 04002KT 24/14 A3016 RMK A01 T02430141  RH  053%=      5-min Rain = 0
KAM3 161722Z 03003KT 25/14 A3016 RMK A01 T02450139  RH  052%=      5-min Rain = 0
KAM3 161723Z 01005KT 25/14 A3016 RMK A01 T02460141  RH  052%=      5-min Rain = 0
KAM3 161724Z 35006KT 25/14 A3016 RMK A01 T02460139  RH  051%=      5-min Rain = 0
KAM3 161725Z 35006KT 25/14 A3016 RMK A01 T02470136  RH  050%=      5-min Rain = 0
KAM3 161726Z 35005KT 25/14 A3016 RMK A01 T02490142  RH  051%=      5-min Rain = 0
KAM3 161727Z 00004KT 25/14 A3016 RMK A01 T02500137  RH  049%=      5-min Rain = 0
KAM3 161728Z 04004KT 25/14 A3016 RMK A01 T02510136  RH  049%=      5-min Rain = 0
KAM3 161729Z 06004KT 25/13 A3016 RMK A01 T02500133  RH  048%=      5-min Rain = 0
KAM3 161730Z 05003KT 25/14 A3016 RMK A01 T02500136  RH  049%=      5-min Rain = 0
KAM3 161731Z 03003KT 25/14 A3016 RMK A01 T02500136  RH  049%=      5-min Rain = 0
KAM3 161732Z 05005KT 25/14 A3016 RMK A01 T02500137  RH  050%=      5-min Rain = 0
KAM3 161733Z 06005KT 25/13 A3016 RMK A01 T02500133  RH  048%=      5-min Rain = 0
KAM3 161734Z 05005KT 25/13 A3016 RMK A01 T02490134  RH  049%=      5-min Rain = 0
KAM3 161735Z 03005KT 25/14 A3016 RMK A01 T02490137  RH  050%=      5-min Rain = 0
KAM3 161736Z 03008KT 25/14 A3016 RMK A01 T02510138  RH  049%=      5-min Rain = 0
KAM3 161737Z 03007KT 26/13 A3016 RMK A01 T02560134  RH  047%=      5-min Rain = 0
KAM3 161738Z 03006KT 26/13 A3016 RMK A01 T02570128  RH  045%=      5-min Rain = 0
KAM3 161739Z 03003KT 26/13 A3016 RMK A01 T02550130  RH  046%=      5-min Rain = 0
KAM3 161740Z 02003KT 25/13 A3016 RMK A01 T02530132  RH  047%=      5-min Rain = 0
KAM3 161741Z 35003KT 25/13 A3016 RMK A01 T02540134  RH  047%=      5-min Rain = 0
KAM3 161742Z 01004KT 25/13 A3015 RMK A01 T02540133  RH  047%=      5-min Rain = 0
KAM3 161743Z 04003KT 25/13 A3015 RMK A01 T02540134  RH  047%=      5-min Rain = 0
KAM3 161744Z 03003KT 25/14 A3015 RMK A01 T02540139  RH  049%=      5-min Rain = 0
KAM3 161745Z 03007KT 26/14 A3015 RMK A01 T02580138  RH  048%=      5-min Rain = 0
KAM3 161746Z 02006KT 26/14 A3015 RMK A01 T02620135  RH  045%=      5-min Rain = 0
KAM3 161747Z 02006KT 26/13 A3015 RMK A01 T02620130  RH  044%=      5-min Rain = 0
KAM3 161748Z 01005KT 26/13 A3015 RMK A01 T02610125  RH  043%=      5-min Rain = 0
KAM3 161749Z 01005KT 26/13 A3015 RMK A01 T02590128  RH  044%=      5-min Rain = 0
KAM3 161750Z 02004KT 26/13 A3015 RMK A01 T02600127  RH  044%=      5-min Rain = 0
KAM3 161751Z 04003KT 26/12 A3015 RMK A01 T02610123  RH  042%=      5-min Rain = 0
KAM3 161752Z 05003KT 26/12 A3015 RMK A01 T02580123  RH  043%=      5-min Rain = 0
KAM3 161753Z 04004KT 26/13 A3015 RMK A01 T02570131  RH  045%=      5-min Rain = 0
KAM3 161754Z 03008KT 26/13 A3015 RMK A01 T02600134  RH  046%=      5-min Rain = 0
KAM3 161755Z 02006KT 26/13 A3015 RMK A01 T02630126  RH  043%=      5-min Rain = 0
KAM3 161756Z 00005KT 26/13 A3015 RMK A01 T02630126  RH  042%=      5-min Rain = 0
KAM3 161757Z 02006KT 26/13 A3015 RMK A01 T02630128  RH  043%=      5-min Rain = 0
KAM3 161758Z 08005KT 26/13 A3015 RMK A01 T02630131  RH  044%=      5-min Rain = 0
KAM3 161759Z 05009KT 26/13 A3015 RMK A01 T02640128  RH  043%=      5-min Rain = 0
KAM3 161800Z 04010KT 27/13 A3015 RMK A01 T02650125  RH  042%=      5-min Rain = 0
KAM3 161801Z 05009KT 27/13 A3015 RMK A01 T02650126  RH  042%=      5-min Rain = 0
KAM3 161802Z 04008KT 27/13 A3015 RMK A01 T02650131  RH  043%=      5-min Rain = 0
KAM3 161803Z 04008KT 27/13 A3015 RMK A01 T02670125  RH  041%=      5-min Rain = 0
KAM3 161804Z 05008KT 27/12 A3015 RMK A01 T02680124  RH  041%=      5-min Rain = 0
KAM3 161805Z 05006KT 27/12 A3015 RMK A01 T02660122  RH  041%=      5-min Rain = 0
KAM3 161806Z 07003KT 27/12 A3015 RMK A01 T02650122  RH  041%=      5-min Rain = 0
KAM3 161807Z 08003KT 26/12 A3015 RMK A01 T02640123  RH  041%=      5-min Rain = 0
KAM3 161808Z 06004KT 26/12 A3015 RMK A01 T02640124  RH  042%=      5-min Rain = 0
KAM3 161809Z 03005KT 27/13 A3015 RMK A01 T02650129  RH  043%=      5-min Rain = 0
KAM3 161810Z 00006KT 27/12 A3015 RMK A01 T02680123  RH  041%=      5-min Rain = 0
KAM3 161811Z 00007KT 27/12 A3015 RMK A01 T02700124  RH  040%=      5-min Rain = 0
KAM3 161812Z 03008KT 27/12 A3015 RMK A01 T02710124  RH  040%=      5-min Rain = 0
KAM3 161813Z 02009KT 27/13 A3015 RMK A01 T02720126  RH  040%=      5-min Rain = 0
KAM3 161814Z 02008KT 27/12 A3015 RMK A01 T02730122  RH  039%=      5-min Rain = 0
KAM3 161815Z 02006KT 27/12 A3015 RMK A01 T02720123  RH  040%=      5-min Rain = 0
KAM3 161816Z 03007KT 27/13 A3015 RMK A01 T02720127  RH  041%=      5-min Rain = 0
KAM3 161817Z 05007KT 27/12 A3015 RMK A01 T02710118  RH  039%=      5-min Rain = 0
KAM3 161818Z 04008KT 27/12 A3015 RMK A01 T02690123  RH  040%=      5-min Rain = 0
KAM3 161819Z 04008KT 27/12 A3015 RMK A01 T02700122  RH  040%=      5-min Rain = 0
KAM3 161820Z 02003KT 27/12 A3015 RMK A01 T02700121  RH  040%=      5-min Rain = 0
KAM3 161821Z 05008KT 27/13 A3015 RMK A01 T02690127  RH  041%=      5-min Rain = 0
KAM3 161822Z 04009KT 27/12 A3015 RMK A01 T02720124  RH  040%=      5-min Rain = 0
KAM3 161823Z 02008KT 27/12 A3015 RMK A01 T02730123  RH  039%=      5-min Rain = 0
KAM3 161824Z 01007KT 27/12 A3015 RMK A01 T02740123  RH  039%=      5-min Rain = 0
KAM3 161825Z 03005KT 27/12 A3015 RMK A01 T02740117  RH  038%=      5-min Rain = 0
KAM3 161826Z 05007KT 27/13 A3015 RMK A01 T02730126  RH  040%=      5-min Rain = 0
KAM3 161827Z 06008KT 27/12 A3015 RMK A01 T02740118  RH  038%=      5-min Rain = 0
KAM3 161828Z 04007KT 27/12 A3015 RMK A01 T02730116  RH  038%=      5-min Rain = 0
KAM3 161829Z 04007KT 27/12 A3015 RMK A01 T02720124  RH  040%=      5-min Rain = 0
KAM3 161830Z 02008KT 27/12 A3015 RMK A01 T02740124  RH  039%=      5-min Rain = 0
KAM3 161831Z 02004KT 28/12 A3015 RMK A01 T02750117  RH  037%=      5-min Rain = 0
KAM3 161832Z 04003KT 27/12 A3015 RMK A01 T02740122  RH  039%=      5-min Rain = 0
KAM3 161833Z 04005KT 27/12 A3015 RMK A01 T02740120  RH  038%=      5-min Rain = 0
KAM3 161834Z 04010KT 27/12 A3015 RMK A01 T02740121  RH  039%=      5-min Rain = 0
KAM3 161835Z 04006KT 27/12 A3015 RMK A01 T02740119  RH  038%=      5-min Rain = 0
KAM3 161836Z 06007KT 27/12 A3015 RMK A01 T02730122  RH  039%=      5-min Rain = 0
KAM3 161837Z 06009KT 27/12 A3015 RMK A01 T02740117  RH  038%=      5-min Rain = 0
KAM3 161838Z 08005KT 27/11 A3015 RMK A01 T02730113  RH  037%=      5-min Rain = 0
KAM3 161839Z 05007KT 27/12 A3015 RMK A01 T02730120  RH  039%=      5-min Rain = 0
KAM3 161840Z 06008KT 28/12 A3015 RMK A01 T02750124  RH  039%=      5-min Rain = 0
KAM3 161841Z 06009KT 28/13 A3015 RMK A01 T02770129  RH  040%=      5-min Rain = 0
KAM3 161842Z 07008KT 28/12 A3015 RMK A01 T02770118  RH  037%=      5-min Rain = 0
KAM3 161843Z 08006KT 28/12 A3015 RMK A01 T02750116  RH  037%=      5-min Rain = 0
KAM3 161844Z 09004KT 27/12 A3014 RMK A01 T02740117  RH  038%=      5-min Rain = 0
KAM3 161845Z 05003KT 27/12 A3014 RMK A01 T02730122  RH  039%=      5-min Rain = 0
KAM3 161846Z 02004KT 27/13 A3014 RMK A01 T02740125  RH  040%=      5-min Rain = 0
KAM3 161847Z 03007KT 28/13 A3014 RMK A01 T02760131  RH  041%=      5-min Rain = 0
KAM3 161848Z 03008KT 28/13 A3015 RMK A01 T02790129  RH  040%=      5-min Rain = 0
KAM3 161849Z 04007KT 28/13 A3014 RMK A01 T02780127  RH  039%=      5-min Rain = 0
KAM3 161850Z 03008KT 28/13 A3014 RMK A01 T02770129  RH  040%=      5-min Rain = 0
KAM3 161851Z 06006KT 28/13 A3014 RMK A01 T02780128  RH  040%=      5-min Rain = 0
KAM3 161852Z 05008KT 28/13 A3014 RMK A01 T02780127  RH  039%=      5-min Rain = 0
KAM3 161853Z 03011KT 28/12 A3014 RMK A01 T02790123  RH  038%=      5-min Rain = 0
KAM3 161854Z 05010KT 28/12 A3014 RMK A01 T02790122  RH  038%=      5-min Rain = 0
KAM3 161855Z 05009KT 28/12 A3014 RMK A01 T02800119  RH  037%=      5-min Rain = 0
KAM3 161856Z 05009KT 28/11 A3014 RMK A01 T02800112  RH  035%=      5-min Rain = 0
KAM3 161857Z 04009KT 28/12 A3014 RMK A01 T02790115  RH  036%=      5-min Rain = 0
KAM3 161858Z 05007KT 28/12 A3014 RMK A01 T02770117  RH  037%=      5-min Rain = 0
KAM3 161859Z 06005KT 28/12 A3014 RMK A01 T02760121  RH  038%=      5-min Rain = 0
KAM3 161900Z 07002KT 28/13 A3014 RMK A01 T02760131  RH  041%=      5-min Rain = 0
KAM3 161901Z 08003KT 28/12 A3014 RMK A01 T02780124  RH  039%=      5-min Rain = 0
KAM3 161902Z 06004KT 28/13 A3014 RMK A01 T02780131  RH  040%=      5-min Rain = 0
KAM3 161903Z 07008KT 28/13 A3014 RMK A01 T02790134  RH  041%=      5-min Rain = 0
KAM3 161904Z 03007KT 28/13 A3014 RMK A01 T02830130  RH  039%=      5-min Rain = 0
KAM3 161905Z 05007KT 28/13 A3014 RMK A01 T02830126  RH  038%=      5-min Rain = 0
KAM3 161906Z 06005KT 28/12 A3014 RMK A01 T02830118  RH  036%=      5-min Rain = 0
KAM3 161907Z 07003KT 28/12 A3014 RMK A01 T02820123  RH  038%=      5-min Rain = 0
KAM3 161908Z 05004KT 28/12 A3014 RMK A01 T02830123  RH  037%=      5-min Rain = 0
KAM3 161909Z 02008KT 28/12 A3014 RMK A01 T02830124  RH  037%=      5-min Rain = 0
KAM3 161910Z 02007KT 28/13 A3014 RMK A01 T02830126  RH  038%=      5-min Rain = 0
KAM3 161911Z 05008KT 28/12 A3014 RMK A01 T02830122  RH  037%=      5-min Rain = 0
KAM3 161912Z 04007KT 28/12 A3014 RMK A01 T02830119  RH  036%=      5-min Rain = 0
KAM3 161913Z 05008KT 28/12 A3014 RMK A01 T02830116  RH  036%=      5-min Rain = 0
KAM3 161914Z 06007KT 28/12 A3014 RMK A01 T02830117  RH  036%=      5-min Rain = 0
KAM3 161915Z 05009KT 28/11 A3014 RMK A01 T02840110  RH  034%=      5-min Rain = 0
KAM3 161916Z 06007KT 28/11 A3014 RMK A01 T02840111  RH  034%=      5-min Rain = 0
KAM3 161917Z 07002KT 28/11 A3014 RMK A01 T02820108  RH  034%=      5-min Rain = 0
KAM3 161918Z 09004KT 28/11 A3014 RMK A01 T02820111  RH  035%=      5-min Rain = 0
KAM3 161919Z 06008KT 28/11 A3014 RMK A01 T02830114  RH  035%=      5-min Rain = 0
KAM3 161920Z 07009KT 28/11 A3014 RMK A01 T02840107  RH  033%=      5-min Rain = 0
KAM3 161921Z 08009KT 28/11 A3014 RMK A01 T02840113  RH  035%=      5-min Rain = 0
KAM3 161922Z 10008KT 28/11 A3014 RMK A01 T02840105  RH  033%=      5-min Rain = 0
KAM3 161923Z 08007KT 28/11 A3014 RMK A01 T02840106  RH  033%=      5-min Rain = 0
KAM3 161924Z 06007KT 28/10 A3014 RMK A01 T02840103  RH  032%=      5-min Rain = 0
KAM3 161925Z 06005KT 28/10 A3014 RMK A01 T02840102  RH  032%=      5-min Rain = 0
KAM3 161926Z 08005KT 29/11 A3014 RMK A01 T02850108  RH  033%=      5-min Rain = 0
KAM3 161927Z 10007KT 29/09 A3014 RMK A01 T02870089  RH  029%=      5-min Rain = 0
KAM3 161928Z 07006KT 29/10 A3014 RMK A01 T02870095  RH  030%=      5-min Rain = 0
KAM3 161929Z 03006KT 29/11 A3014 RMK A01 T02880107  RH  032%=      5-min Rain = 0
KAM3 161930Z 04006KT 29/11 A3014 RMK A01 T02880109  RH  033%=      5-min Rain = 0
KAM3 161931Z 05006KT 29/11 A3014 RMK A01 T02860108  RH  033%=      5-min Rain = 0
KAM3 161932Z 08006KT 29/11 A3014 RMK A01 T02850110  RH  034%=      5-min Rain = 0
KAM3 161933Z 08005KT 29/11 A3014 RMK A01 T02870110  RH  033%=      5-min Rain = 0
KAM3 161934Z 05006KT 29/11 A3014 RMK A01 T02880105  RH  032%=      5-min Rain = 0
KAM3 161935Z 04009KT 29/10 A3014 RMK A01 T02880102  RH  031%=      5-min Rain = 0
KAM3 161936Z 06008KT 29/10 A3014 RMK A01 T02880098  RH  031%=      5-min Rain = 0
KAM3 161937Z 04008KT 29/10 A3014 RMK A01 T02860101  RH  031%=      5-min Rain = 0
KAM3 161938Z 04005KT 29/10 A3014 RMK A01 T02870103  RH  032%=      5-min Rain = 0
KAM3 161939Z 04007KT 29/10 A3014 RMK A01 T02880099  RH  031%=      5-min Rain = 0
KAM3 161940Z 04004KT 29/10 A3014 RMK A01 T02880097  RH  030%=      5-min Rain = 0
KAM3 161941Z 06006KT 29/10 A3014 RMK A01 T02880100  RH  031%=      5-min Rain = 0
KAM3 161942Z 07007KT 29/10 A3014 RMK A01 T02880098  RH  031%=      5-min Rain = 0
KAM3 161943Z 06007KT 29/10 A3014 RMK A01 T02890097  RH  030%=      5-min Rain = 0
KAM3 161944Z 05006KT 29/10 A3014 RMK A01 T02890096  RH  030%=      5-min Rain = 0
KAM3 161945Z 02004KT 29/10 A3014 RMK A01 T02890098  RH  031%=      5-min Rain = 0
KAM3 161946Z 01002KT 29/10 A3014 RMK A01 T02880095  RH  030%=      5-min Rain = 0
KAM3 161947Z 07004KT 29/09 A3014 RMK A01 T02870093  RH  030%=      5-min Rain = 0
KAM3 161948Z 07006KT 29/09 A3014 RMK A01 T02870093  RH  030%=      5-min Rain = 0
KAM3 161949Z 09005KT 29/09 A3014 RMK A01 T02870089  RH  029%=      5-min Rain = 0
KAM3 161950Z 07004KT 29/09 A3014 RMK A01 T02860090  RH  029%=      5-min Rain = 0
KAM3 161951Z 06008KT 29/10 A3014 RMK A01 T02860099  RH  031%=      5-min Rain = 0
KAM3 161952Z 05009KT 29/10 A3014 RMK A01 T02870102  RH  031%=      5-min Rain = 0
KAM3 161953Z 04008KT 29/09 A3014 RMK A01 T02890094  RH  029%=      5-min Rain = 0
KAM3 161954Z 04007KT 29/09 A3014 RMK A01 T02880092  RH  029%=      5-min Rain = 0
KAM3 161955Z 05007KT 29/09 A3014 RMK A01 T02880093  RH  030%=      5-min Rain = 0
KAM3 161956Z 04007KT 29/09 A3014 RMK A01 T02880087  RH  028%=      5-min Rain = 0
KAM3 161957Z 03005KT 29/08 A3013 RMK A01 T02880083  RH  028%=      5-min Rain = 0
KAM3 161958Z 05005KT 29/08 A3013 RMK A01 T02870084  RH  028%=      5-min Rain = 0
KAM3 161959Z 04004KT 29/09 A3013 RMK A01 T02870092  RH  030%=      5-min Rain = 0
KAM3 162000Z 05005KT 29/09 A3013 RMK A01 T02880089  RH  029%=      5-min Rain = 0
KAM3 162001Z 06006KT 29/08 A3013 RMK A01 T02890080  RH  027%=      5-min Rain = 0
KAM3 162002Z 05007KT 29/08 A3013 RMK A01 T02890079  RH  027%=      5-min Rain = 0
KAM3 162003Z 04007KT 29/08 A3013 RMK A01 T02890080  RH  027%=      5-min Rain = 0
KAM3 162004Z 02007KT 29/09 A3013 RMK A01 T02890089  RH  029%=      5-min Rain = 0
KAM3 162005Z 03007KT 29/09 A3013 RMK A01 T02890089  RH  029%=      5-min Rain = 0
KAM3 162006Z 07004KT 29/08 A3013 RMK A01 T02890082  RH  027%=      5-min Rain = 0
KAM3 162007Z 03004KT 29/08 A3013 RMK A01 T02890081  RH  027%=      5-min Rain = 0
KAM3 162008Z 02003KT 29/08 A3013 RMK A01 T02890076  RH  026%=      5-min Rain = 0
KAM3 162009Z 04005G11KT 29/08 A3013 RMK A01 T02890082  RH  027%=      5-min Rain = 0
KAM3 162010Z 06008KT 29/10 A3013 RMK A01 T02900096  RH  030%=      5-min Rain = 0
KAM3 162011Z 04007KT 29/11 A3013 RMK A01 T02910105  RH  031%=      5-min Rain = 0
KAM3 162012Z 04008KT 29/09 A3013 RMK A01 T02930094  RH  029%=      5-min Rain = 0
KAM3 162013Z 04007KT 29/09 A3013 RMK A01 T02920089  RH  028%=      5-min Rain = 0
KAM3 162014Z 04006KT 29/09 A3013 RMK A01 T02900087  RH  028%=      5-min Rain = 0
KAM3 162015Z 05006KT 29/09 A3013 RMK A01 T02890089  RH  029%=      5-min Rain = 0
KAM3 162016Z 06006KT 29/09 A3013 RMK A01 T02890094  RH  030%=      5-min Rain = 0
KAM3 162017Z 06006KT 29/09 A3013 RMK A01 T02900088  RH  028%=      5-min Rain = 0
KAM3 162018Z 08008KT 29/10 A3013 RMK A01 T02900097  RH  030%=      5-min Rain = 0
KAM3 162019Z 09007KT 29/08 A3013 RMK A01 T02910084  RH  027%=      5-min Rain = 0
KAM3 162020Z 10004KT 29/09 A3013 RMK A01 T02900088  RH  028%=      5-min Rain = 0
KAM3 162021Z 11003KT 29/08 A3013 RMK A01 T02900084  RH  027%=      5-min Rain = 0
KAM3 162022Z 10002KT 29/08 A3013 RMK A01 T02910082  RH  027%=      5-min Rain = 0
KAM3 162023Z 09004KT 29/09 A3013 RMK A01 T02920092  RH  029%=      5-min Rain = 0
KAM3 162024Z 08004KT 29/10 A3013 RMK A01 T02930097  RH  030%=      5-min Rain = 0
KAM3 162025Z 07007KT 29/10 A3013 RMK A01 T02940099  RH  030%=      5-min Rain = 0
KAM3 162026Z 06009KT 30/09 A3013 RMK A01 T02950094  RH  029%=      5-min Rain = 0
KAM3 162027Z 07007KT 30/08 A3013 RMK A01 T02960080  RH  026%=      5-min Rain = 0
KAM3 162028Z 07008KT 29/08 A3013 RMK A01 T02930082  RH  027%=      5-min Rain = 0
KAM3 162029Z 07008KT 29/08 A3013 RMK A01 T02920079  RH  026%=      5-min Rain = 0
KAM3 162030Z 06006KT 29/07 A3013 RMK A01 T02920073  RH  025%=      5-min Rain = 0
KAM3 162031Z 07006KT 29/08 A3013 RMK A01 T02910080  RH  027%=      5-min Rain = 0
KAM3 162032Z 07006KT 29/09 A3013 RMK A01 T02920085  RH  027%=      5-min Rain = 0
KAM3 162033Z 08005KT 29/08 A3013 RMK A01 T02920083  RH  027%=      5-min Rain = 0
KAM3 162034Z 02002KT 29/09 A3013 RMK A01 T02920085  RH  027%=      5-min Rain = 0
KAM3 162035Z 02004KT 29/09 A3013 RMK A01 T02930087  RH  028%=      5-min Rain = 0
KAM3 162036Z 04005KT 29/08 A3013 RMK A01 T02940082  RH  026%=      5-min Rain = 0
KAM3 162037Z 02006G11KT 30/08 A3013 RMK A01 T02950083  RH  027%=      5-min Rain = 0
KAM3 162038Z 01009KT 29/09 A3013 RMK A01 T02940087  RH  027%=      5-min Rain = 0
KAM3 162039Z 00010KT 29/09 A3013 RMK A01 T02940089  RH  028%=      5-min Rain = 0
KAM3 162040Z 00007KT 30/09 A3013 RMK A01 T02960088  RH  027%=      5-min Rain = 0
KAM3 162041Z 00011KT 30/09 A3013 RMK A01 T02980085  RH  027%=      5-min Rain = 0
KAM3 162042Z 34013KT 30/08 A3013 RMK A01 T02990081  RH  026%=      5-min Rain = 0
KAM3 162043Z 36011KT 30/08 A3013 RMK A01 T02980081  RH  026%=      5-min Rain = 0
KAM3 162044Z 35008KT 30/08 A3013 RMK A01 T02970081  RH  026%=      5-min Rain = 0
KAM3 162045Z 33006KT 30/08 A3013 RMK A01 T02960080  RH  026%=      5-min Rain = 0
KAM3 162046Z 33006KT 29/08 A3013 RMK A01 T02940081  RH  026%=      5-min Rain = 0
KAM3 162047Z 34004KT 29/09 A3013 RMK A01 T02940088  RH  028%=      5-min Rain = 0
KAM3 162048Z 35003KT 30/08 A3013 RMK A01 T02950081  RH  026%=      5-min Rain = 0
KAM3 162049Z 33003KT 30/08 A3013 RMK A01 T02950075  RH  025%=      5-min Rain = 0
KAM3 162050Z 33003KT 30/08 A3013 RMK A01 T02950075  RH  025%=      5-min Rain = 0
KAM3 162051Z 35003KT 30/09 A3013 RMK A01 T02950087  RH  027%=      5-min Rain = 0
KAM3 162052Z 34004KT 30/08 A3013 RMK A01 T02980076  RH  025%=      5-min Rain = 0
KAM3 162053Z 35004KT 30/08 A3013 RMK A01 T02980078  RH  025%=      5-min Rain = 0
KAM3 162054Z 34004KT 30/08 A3013 RMK A01 T02990082  RH  026%=      5-min Rain = 0
KAM3 162055Z 01008KT 30/08 A3013 RMK A01 T03000075  RH  025%=      5-min Rain = 0
KAM3 162056Z 01008KT 30/08 A3013 RMK A01 T03000078  RH  025%=      5-min Rain = 0
KAM3 162057Z 03008KT 30/08 A3013 RMK A01 T02980079  RH  025%=      5-min Rain = 0
KAM3 162058Z 01007KT 30/08 A3013 RMK A01 T02970079  RH  025%=      5-min Rain = 0
KAM3 162059Z 35006G11KT 30/09 A3013 RMK A01 T02970091  RH  028%=      5-min Rain = 0
KAM3 162100Z 01007KT 30/08 A3013 RMK A01 T02980082  RH  026%=      5-min Rain = 0
KAM3 162101Z 02005KT 30/08 A3013 RMK A01 T02980082  RH  026%=      5-min Rain = 0
KAM3 162102Z 02007KT 30/08 A3013 RMK A01 T02970077  RH  025%=      5-min Rain = 0
KAM3 162103Z 01005KT 30/08 A3013 RMK A01 T02960078  RH  026%=      5-min Rain = 0
KAM3 162104Z 02005KT 30/08 A3013 RMK A01 T02960081  RH  026%=      5-min Rain = 0
KAM3 162105Z 01005KT 30/08 A3013 RMK A01 T02960082  RH  026%=      5-min Rain = 0
KAM3 162106Z 01005G10KT 30/08 A3013 RMK A01 T02960084  RH  027%=      5-min Rain = 0
KAM3 162107Z 00004G10KT 30/08 A3013 RMK A01 T02960077  RH  025%=      5-min Rain = 0
KAM3 162108Z 34005KT 30/08 A3013 RMK A01 T02950080  RH  026%=      5-min Rain = 0
KAM3 162109Z 33006KT 29/08 A3013 RMK A01 T02940078  RH  026%=      5-min Rain = 0
KAM3 162110Z 33006KT 29/08 A3013 RMK A01 T02940079  RH  026%=      5-min Rain = 0
KAM3 162111Z 33009KT 29/09 A3013 RMK A01 T02940086  RH  027%=      5-min Rain = 0
KAM3 162112Z 31004KT 30/08 A3013 RMK A01 T02950077  RH  025%=      5-min Rain = 0
KAM3 162113Z 31005KT 29/08 A3013 RMK A01 T02940081  RH  026%=      5-min Rain = 0
KAM3 162114Z 32003KT 29/08 A3012 RMK A01 T02940084  RH  027%=      5-min Rain = 0
KAM3 162115Z 31004KT 30/09 A3012 RMK A01 T02950085  RH  027%=      5-min Rain = 0
KAM3 162116Z 36005G10KT 30/09 A3013 RMK A01 T02960085  RH  027%=      5-min Rain = 0
KAM3 162117Z 03008KT 30/10 A3013 RMK A01 T02970099  RH  029%=      5-min Rain = 0
KAM3 162118Z 05011KT 30/09 A3013 RMK A01 T03000091  RH  027%=      5-min Rain = 0
KAM3 162119Z 06009KT 30/09 A3013 RMK A01 T02980085  RH  026%=      5-min Rain = 0
KAM3 162120Z 04009KT 30/09 A3013 RMK A01 T02960090  RH  028%=      5-min Rain = 0
KAM3 162121Z 36009KT 30/09 A3013 RMK A01 T02950086  RH  027%=      5-min Rain = 0
KAM3 162122Z 01008KT 30/09 A3013 RMK A01 T02950085  RH  027%=      5-min Rain = 0
KAM3 162123Z 36006KT 29/09 A3013 RMK A01 T02940090  RH  028%=      5-min Rain = 0
KAM3 162124Z 34006KT 30/09 A3013 RMK A01 T02950092  RH  028%=      5-min Rain = 0
KAM3 162125Z 01004KT 30/09 A3013 RMK A01 T02950088  RH  027%=      5-min Rain = 0
KAM3 162126Z 01004KT 30/09 A3013 RMK A01 T02960085  RH  027%=      5-min Rain = 0
KAM3 162127Z 04005KT 30/09 A3013 RMK A01 T02960094  RH  028%=      5-min Rain = 0
KAM3 162128Z 08007KT 30/09 A3013 RMK A01 T02960092  RH  028%=      5-min Rain = 0
KAM3 162129Z 08006KT 30/09 A3013 RMK A01 T02970090  RH  028%=      5-min Rain = 0
KAM3 162130Z 08006KT 30/09 A3013 RMK A01 T02960085  RH  027%=      5-min Rain = 0
KAM3 162131Z 06010KT 30/10 A3013 RMK A01 T02950099  RH  030%=      5-min Rain = 0
KAM3 162132Z 04007KT 30/10 A3013 RMK A01 T02960103  RH  030%=      5-min Rain = 0
KAM3 162133Z 02008KT 30/10 A3013 RMK A01 T02990101  RH  029%=      5-min Rain = 0
KAM3 162134Z 01009KT 30/10 A3013 RMK A01 T03000100  RH  029%=      5-min Rain = 0
KAM3 162135Z 36009KT 30/10 A3013 RMK A01 T03000098  RH  029%=      5-min Rain = 0
KAM3 162136Z 00007KT 30/09 A3013 RMK A01 T02980093  RH  028%=      5-min Rain = 0
KAM3 162137Z 02006KT 30/09 A3013 RMK A01 T02950091  RH  028%=      5-min Rain = 0
KAM3 162138Z 03008KT 29/10 A3013 RMK A01 T02940099  RH  030%=      5-min Rain = 0
KAM3 162139Z 02006KT 29/09 A3013 RMK A01 T02940094  RH  029%=      5-min Rain = 0
KAM3 162140Z 01004KT 29/09 A3012 RMK A01 T02930092  RH  028%=      5-min Rain = 0
KAM3 162141Z 02005KT 29/10 A3012 RMK A01 T02930096  RH  029%=      5-min Rain = 0
KAM3 162142Z 03007KT 29/10 A3012 RMK A01 T02920095  RH  029%=      5-min Rain = 0
KAM3 162143Z 03009KT 29/10 A3012 RMK A01 T02920101  RH  030%=      5-min Rain = 0
KAM3 162144Z 02009KT 29/10 A3012 RMK A01 T02940097  RH  029%=      5-min Rain = 0
KAM3 162145Z 01009KT 29/09 A3012 RMK A01 T02930094  RH  029%=      5-min Rain = 0
KAM3 162146Z 03011KT 29/10 A3012 RMK A01 T02920096  RH  029%=      5-min Rain = 0
KAM3 162147Z 03010KT 29/09 A3012 RMK A01 T02920091  RH  029%=      5-min Rain = 0
KAM3 162148Z 02010KT 29/09 A3012 RMK A01 T02920094  RH  029%=      5-min Rain = 0
KAM3 162149Z 03009KT 29/10 A3012 RMK A01 T02930097  RH  030%=      5-min Rain = 0
KAM3 162150Z 04006KT 29/09 A3012 RMK A01 T02930094  RH  029%=      5-min Rain = 0
KAM3 162151Z 02005KT 29/09 A3012 RMK A01 T02930094  RH  029%=      5-min Rain = 0
KAM3 162152Z 34006KT 29/10 A3012 RMK A01 T02930098  RH  030%=      5-min Rain = 0
KAM3 162153Z 02006KT 29/10 A3012 RMK A01 T02930099  RH  030%=      5-min Rain = 0
KAM3 162154Z 03007KT 29/10 A3012 RMK A01 T02940102  RH  030%=      5-min Rain = 0
KAM3 162155Z 04013KT 30/10 A3012 RMK A01 T02950101  RH  030%=      5-min Rain = 0
KAM3 162156Z 05011KT 30/10 A3012 RMK A01 T02950101  RH  030%=      5-min Rain = 0
KAM3 162157Z 07010KT 29/10 A3012 RMK A01 T02940100  RH  030%=      5-min Rain = 0
KAM3 162158Z 08006KT 29/10 A3012 RMK A01 T02920096  RH  030%=      5-min Rain = 0
KAM3 162159Z 07005KT 29/10 A3012 RMK A01 T02890099  RH  031%=      5-min Rain = 0
KAM3 162200Z 06006KT 29/10 A3012 RMK A01 T02880100  RH  031%=      5-min Rain = 0
KAM3 162201Z 04006G12KT 29/10 A3012 RMK A01 T02880102  RH  031%=      5-min Rain = 0
KAM3 162202Z 04011KT 29/10 A3012 RMK A01 T02880103  RH  031%=      5-min Rain = 0
KAM3 162203Z 06009KT 29/10 A3012 RMK A01 T02900099  RH  030%=      5-min Rain = 0
KAM3 162204Z 05006KT 29/11 A3012 RMK A01 T02900105  RH  032%=      5-min Rain = 0
KAM3 162205Z 03006KT 29/10 A3012 RMK A01 T02910104  RH  031%=      5-min Rain = 0
KAM3 162206Z 05010KT 29/11 A3012 RMK A01 T02930107  RH  032%=      5-min Rain = 0
KAM3 162207Z 03014KT 29/10 A3012 RMK A01 T02940101  RH  030%=      5-min Rain = 0
KAM3 162208Z 03012KT 29/10 A3012 RMK A01 T02940098  RH  030%=      5-min Rain = 0
KAM3 162209Z 02012KT 29/10 A3012 RMK A01 T02940097  RH  029%=      5-min Rain = 0
KAM3 162210Z 03011KT 29/10 A3012 RMK A01 T02930097  RH  030%=      5-min Rain = 0
KAM3 162211Z 04011KT 29/10 A3012 RMK A01 T02930096  RH  029%=      5-min Rain = 0
KAM3 162212Z 03009KT 29/10 A3012 RMK A01 T02920095  RH  029%=      5-min Rain = 0
KAM3 162213Z 02012KT 29/10 A3012 RMK A01 T02920096  RH  030%=      5-min Rain = 0
KAM3 162214Z 03012KT 29/09 A3012 RMK A01 T02900092  RH  029%=      5-min Rain = 0
KAM3 162215Z 02009KT 29/09 A3012 RMK A01 T02870093  RH  030%=      5-min Rain = 0
KAM3 162216Z 02009KT 29/09 A3012 RMK A01 T02860093  RH  030%=      5-min Rain = 0
KAM3 162217Z 02009KT 28/09 A3012 RMK A01 T02840094  RH  030%=      5-min Rain = 0
KAM3 162218Z 03006KT 28/10 A3012 RMK A01 T02830100  RH  032%=      5-min Rain = 0
KAM3 162219Z 02006KT 28/10 A3012 RMK A01 T02830102  RH  032%=      5-min Rain = 0
KAM3 162220Z 02006KT 28/11 A3012 RMK A01 T02830105  RH  033%=      5-min Rain = 0
KAM3 162221Z 02007KT 28/10 A3012 RMK A01 T02820098  RH  032%=      5-min Rain = 0
KAM3 162222Z 02006KT 28/10 A3012 RMK A01 T02820097  RH  032%=      5-min Rain = 0
KAM3 162223Z 01006KT 28/10 A3012 RMK A01 T02810103  RH  033%=      5-min Rain = 0
KAM3 162224Z 01005KT 28/11 A3012 RMK A01 T02820105  RH  033%=      5-min Rain = 0
KAM3 162225Z 03005KT 28/11 A3012 RMK A01 T02810105  RH  033%=      5-min Rain = 0
KAM3 162226Z 02006KT 28/10 A3012 RMK A01 T02820103  RH  033%=      5-min Rain = 0
KAM3 162227Z 01005KT 28/10 A3012 RMK A01 T02830100  RH  032%=      5-min Rain = 0
KAM3 162228Z 03004KT 28/10 A3012 RMK A01 T02830100  RH  032%=      5-min Rain = 0
KAM3 162229Z 04003KT 28/10 A3012 RMK A01 T02830100  RH  032%=      5-min Rain = 0
KAM3 162230Z 02004KT 28/10 A3012 RMK A01 T02840103  RH  032%=      5-min Rain = 0
KAM3 162231Z 03004KT 29/11 A3012 RMK A01 T02850105  RH  033%=      5-min Rain = 0
KAM3 162232Z 04007KT 29/11 A3012 RMK A01 T02870109  RH  033%=      5-min Rain = 0
KAM3 162233Z 03009KT 29/10 A3012 RMK A01 T02900104  RH  031%=      5-min Rain = 0
KAM3 162234Z 02010KT 29/10 A3012 RMK A01 T02910099  RH  030%=      5-min Rain = 0
KAM3 162235Z 35012KT 29/09 A3012 RMK A01 T02920092  RH  029%=      5-min Rain = 0
KAM3 162236Z 36014KT 29/09 A3012 RMK A01 T02920089  RH  028%=      5-min Rain = 0
KAM3 162237Z 35012KT 29/09 A3012 RMK A01 T02920085  RH  027%=      5-min Rain = 0
KAM3 162238Z 01010KT 29/09 A3012 RMK A01 T02910091  RH  029%=      5-min Rain = 0
KAM3 162239Z 02010KT 29/09 A3012 RMK A01 T02910091  RH  029%=      5-min Rain = 0
KAM3 162240Z 01013KT 29/09 A3012 RMK A01 T02910089  RH  028%=      5-min Rain = 0
KAM3 162241Z 01010KT 29/09 A3012 RMK A01 T02910089  RH  028%=      5-min Rain = 0
KAM3 162242Z 00009G14KT 29/09 A3012 RMK A01 T02890092  RH  029%=      5-min Rain = 0
KAM3 162243Z 00009G14KT 29/10 A3012 RMK A01 T02890095  RH  030%=      5-min Rain = 0
KAM3 162244Z 03013KT 29/09 A3012 RMK A01 T02910094  RH  029%=      5-min Rain = 0
KAM3 162245Z 03012KT 29/09 A3012 RMK A01 T02910093  RH  029%=      5-min Rain = 0
KAM3 162246Z 04013KT 29/10 A3012 RMK A01 T02910095  RH  030%=      5-min Rain = 0
KAM3 162247Z 04012KT 29/09 A3013 RMK A01 T02910089  RH  028%=      5-min Rain = 0
KAM3 162248Z 05010KT 29/09 A3012 RMK A01 T02900092  RH  029%=      5-min Rain = 0
KAM3 162249Z 03010KT 29/09 A3013 RMK A01 T02890091  RH  029%=      5-min Rain = 0
KAM3 162250Z 04012KT 29/09 A3013 RMK A01 T02890091  RH  029%=      5-min Rain = 0
KAM3 162251Z 03012KT 29/09 A3013 RMK A01 T02890091  RH  029%=      5-min Rain = 0
KAM3 162252Z 01010KT 29/09 A3013 RMK A01 T02890092  RH  029%=      5-min Rain = 0
KAM3 162253Z 00013G18KT 29/10 A3013 RMK A01 T02890095  RH  030%=      5-min Rain = 0
KAM3 162254Z 36013KT 29/09 A3013 RMK A01 T02880091  RH  029%=      5-min Rain = 0
KAM3 162255Z 01011KT 29/10 A3013 RMK A01 T02870095  RH  030%=      5-min Rain = 0
KAM3 162256Z 01015KT 29/09 A3013 RMK A01 T02860092  RH  030%=      5-min Rain = 0
KAM3 162257Z 01016KT 29/09 A3013 RMK A01 T02860088  RH  029%=      5-min Rain = 0
KAM3 162258Z 01012KT 29/09 A3013 RMK A01 T02860091  RH  029%=      5-min Rain = 0
KAM3 162259Z 01012KT 29/09 A3013 RMK A01 T02870093  RH  030%=      5-min Rain = 0
KAM3 162300Z 01014KT 29/09 A3013 RMK A01 T02880089  RH  029%=      5-min Rain = 0
KAM3 162301Z 36013KT 29/09 A3013 RMK A01 T02880088  RH  029%=      5-min Rain = 0
KAM3 162302Z 00013KT 29/09 A3013 RMK A01 T02870089  RH  029%=      5-min Rain = 0
KAM3 162303Z 36016G22KT 29/09 A3013 RMK A01 T02870091  RH  029%=      5-min Rain = 0
KAM3 162304Z 01016G21KT 29/09 A3013 RMK A01 T02860089  RH  029%=      5-min Rain = 0
KAM3 162305Z 00013KT 29/09 A3013 RMK A01 T02860089  RH  029%=      5-min Rain = 0
KAM3 162306Z 01013KT 29/09 A3013 RMK A01 T02860090  RH  029%=      5-min Rain = 0
KAM3 162307Z 00012KT 29/09 A3013 RMK A01 T02850092  RH  030%=      5-min Rain = 0
KAM3 162308Z 36014KT 29/09 A3013 RMK A01 T02860089  RH  029%=      5-min Rain = 0
KAM3 162309Z 00013KT 29/09 A3013 RMK A01 T02860090  RH  029%=      5-min Rain = 0
KAM3 162310Z 00014KT 29/09 A3013 RMK A01 T02860091  RH  030%=      5-min Rain = 0
KAM3 162311Z 01014KT 29/09 A3013 RMK A01 T02860088  RH  029%=      5-min Rain = 0
KAM3 162312Z 01015KT 29/09 A3013 RMK A01 T02850090  RH  030%=      5-min Rain = 0
KAM3 162313Z 00015KT 29/09 A3013 RMK A01 T02850089  RH  029%=      5-min Rain = 0
KAM3 162314Z 01013KT 28/09 A3013 RMK A01 T02840091  RH  030%=      5-min Rain = 0
KAM3 162315Z 01014KT 28/09 A3013 RMK A01 T02840090  RH  029%=      5-min Rain = 0
KAM3 162316Z 01013KT 29/09 A3013 RMK A01 T02850089  RH  029%=      5-min Rain = 0
KAM3 162317Z 01015KT 28/09 A3013 RMK A01 T02840088  RH  029%=      5-min Rain = 0
KAM3 162318Z 01014KT 28/09 A3013 RMK A01 T02840086  RH  029%=      5-min Rain = 0
KAM3 162319Z 02014KT 28/09 A3013 RMK A01 T02830086  RH  029%=      5-min Rain = 0
KAM3 162320Z 02013KT 28/09 A3013 RMK A01 T02820086  RH  029%=      5-min Rain = 0
KAM3 162321Z 02014KT 28/09 A3013 RMK A01 T02810086  RH  029%=      5-min Rain = 0
KAM3 162322Z 01011KT 28/09 A3013 RMK A01 T02800088  RH  030%=      5-min Rain = 0
KAM3 162323Z 00013KT 28/09 A3013 RMK A01 T02810086  RH  029%=      5-min Rain = 0
KAM3 162324Z 01015KT 28/09 A3014 RMK A01 T02810086  RH  029%=      5-min Rain = 0
KAM3 162325Z 01011KT 28/09 A3014 RMK A01 T02810087  RH  030%=      5-min Rain = 0
KAM3 162326Z 01011KT 28/09 A3014 RMK A01 T02810090  RH  030%=      5-min Rain = 0
KAM3 162327Z 01013KT 28/09 A3014 RMK A01 T02810089  RH  030%=      5-min Rain = 0
KAM3 162328Z 01013KT 28/09 A3014 RMK A01 T02810089  RH  030%=      5-min Rain = 0
KAM3 162329Z 01012KT 28/09 A3014 RMK A01 T02790088  RH  030%=      5-min Rain = 0
KAM3 162330Z 01012KT 28/09 A3014 RMK A01 T02780087  RH  030%=      5-min Rain = 0
KAM3 162331Z 01013KT 28/09 A3014 RMK A01 T02780088  RH  030%=      5-min Rain = 0
KAM3 162332Z 02013KT 28/09 A3014 RMK A01 T02770088  RH  030%=      5-min Rain = 0
KAM3 162333Z 03011KT 28/09 A3014 RMK A01 T02760086  RH  030%=      5-min Rain = 0
KAM3 162334Z 02010KT 28/09 A3014 RMK A01 T02760090  RH  031%=      5-min Rain = 0
KAM3 162335Z 02012KT 28/09 A3014 RMK A01 T02750088  RH  031%=      5-min Rain = 0
KAM3 162336Z 02014KT 28/09 A3014 RMK A01 T02750087  RH  031%=      5-min Rain = 0
KAM3 162337Z 02013KT 28/09 A3014 RMK A01 T02750087  RH  031%=      5-min Rain = 0
KAM3 162338Z 02012KT 28/09 A3014 RMK A01 T02750089  RH  031%=      5-min Rain = 0
KAM3 162339Z 02011KT 27/09 A3014 RMK A01 T02740091  RH  032%=      5-min Rain = 0
KAM3 162340Z 03012KT 27/09 A3014 RMK A01 T02740092  RH  032%=      5-min Rain = 0
KAM3 162341Z 02011KT 27/09 A3014 RMK A01 T02740093  RH  032%=      5-min Rain = 0
KAM3 162342Z 01010KT 27/10 A3014 RMK A01 T02740095  RH  032%=      5-min Rain = 0
KAM3 162343Z 01011KT 27/09 A3014 RMK A01 T02730094  RH  032%=      5-min Rain = 0
KAM3 162344Z 02010KT 27/10 A3014 RMK A01 T02730095  RH  033%=      5-min Rain = 0
KAM3 162345Z 02009KT 27/10 A3014 RMK A01 T02730095  RH  033%=      5-min Rain = 0
KAM3 162346Z 02008KT 27/10 A3014 RMK A01 T02720099  RH  034%=      5-min Rain = 0
KAM3 162347Z 02009KT 27/10 A3014 RMK A01 T02710099  RH  034%=      5-min Rain = 0
KAM3 162348Z 02010KT 27/10 A3014 RMK A01 T02700096  RH  033%=      5-min Rain = 0
KAM3 162349Z 02010KT 27/09 A3014 RMK A01 T02690093  RH  033%=      5-min Rain = 0
KAM3 162350Z 02010KT 27/09 A3014 RMK A01 T02690094  RH  033%=      5-min Rain = 0
KAM3 162351Z 02009KT 27/09 A3014 RMK A01 T02700094  RH  033%=      5-min Rain = 0
KAM3 162352Z 02010KT 27/09 A3014 RMK A01 T02690093  RH  033%=      5-min Rain = 0
KAM3 162353Z 02009KT 27/09 A3014 RMK A01 T02690092  RH  033%=      5-min Rain = 0
KAM3 162354Z 02009KT 27/09 A3014 RMK A01 T02680094  RH  033%=      5-min Rain = 0
KAM3 162355Z 02009KT 27/09 A3014 RMK A01 T02670094  RH  034%=      5-min Rain = 0
KAM3 162356Z 02011KT 27/09 A3014 RMK A01 T02660093  RH  034%=      5-min Rain = 0
KAM3 162357Z 02010KT 27/09 A3014 RMK A01 T02660091  RH  033%=      5-min Rain = 0
KAM3 162358Z 02008KT 27/09 A3015 RMK A01 T02660092  RH  033%=      5-min Rain = 0
KAM3 162359Z 02008KT 27/10 A3015 RMK A01 T02660095  RH  034%=      5-min Rain = 0
KAM3 170000Z 02008KT 27/09 A3015 RMK A01 T02650094  RH  034%=      5-min Rain = 0
KAM3 170001Z 02009KT 26/09 A3015 RMK A01 T02640094  RH  034%=      5-min Rain = 0
KAM3 170002Z 02009KT 26/09 A3015 RMK A01 T02630091  RH  034%=      5-min Rain = 0
KAM3 170003Z 02009KT 26/09 A3015 RMK A01 T02640090  RH  033%=      5-min Rain = 0
KAM3 170004Z 02007KT 26/09 A3015 RMK A01 T02640092  RH  034%=      5-min Rain = 0
KAM3 170005Z 02008KT 26/10 A3015 RMK A01 T02630095  RH  035%=      5-min Rain = 0
KAM3 170006Z 02008KT 26/09 A3015 RMK A01 T02610092  RH  034%=      5-min Rain = 0
KAM3 170007Z 02008KT 26/09 A3015 RMK A01 T02610093  RH  034%=      5-min Rain = 0
KAM3 170008Z 02008KT 26/09 A3015 RMK A01 T02610094  RH  035%=      5-min Rain = 0
KAM3 170009Z 02009KT 26/09 A3015 RMK A01 T02600092  RH  034%=      5-min Rain = 0
KAM3 170010Z 02009KT 26/09 A3015 RMK A01 T02610089  RH  034%=      5-min Rain = 0
KAM3 170011Z 02008KT 26/09 A3015 RMK A01 T02620091  RH  034%=      5-min Rain = 0
KAM3 170012Z 02008KT 26/09 A3015 RMK A01 T02610092  RH  034%=      5-min Rain = 0
KAM3 170013Z 01008KT 26/09 A3015 RMK A01 T02620092  RH  034%=      5-min Rain = 0
KAM3 170014Z 01009KT 26/09 A3015 RMK A01 T02610093  RH  035%=      5-min Rain = 0
KAM3 170015Z 01009KT 26/09 A3015 RMK A01 T02610091  RH  034%=      5-min Rain = 0
KAM3 170016Z 01009KT 26/09 A3015 RMK A01 T02610091  RH  034%=      5-min Rain = 0
KAM3 170017Z 01008KT 26/09 A3015 RMK A01 T02610091  RH  034%=      5-min Rain = 0
KAM3 170018Z 02008KT 26/09 A3015 RMK A01 T02610091  RH  034%=      5-min Rain = 0
KAM3 170019Z 01008KT 26/09 A3015 RMK A01 T02610093  RH  035%=      5-min Rain = 0
KAM3 170020Z 01007KT 26/09 A3015 RMK A01 T02600093  RH  035%=      5-min Rain = 0
KAM3 170021Z 01007KT 26/09 A3015 RMK A01 T02590094  RH  035%=      5-min Rain = 0
KAM3 170022Z 01007KT 26/09 A3015 RMK A01 T02580093  RH  035%=      5-min Rain = 0
KAM3 170023Z 01007KT 26/09 A3015 RMK A01 T02570093  RH  035%=      5-min Rain = 0
KAM3 170024Z 01007KT 26/09 A3015 RMK A01 T02560094  RH  036%=      5-min Rain = 0
KAM3 170025Z 01007KT 26/09 A3015 RMK A01 T02550094  RH  036%=      5-min Rain = 0
KAM3 170026Z 01008KT 26/09 A3015 RMK A01 T02550093  RH  036%=      5-min Rain = 0
KAM3 170027Z 01008KT 25/09 A3015 RMK A01 T02540093  RH  036%=      5-min Rain = 0
KAM3 170028Z 01007KT 25/09 A3015 RMK A01 T02540093  RH  036%=      5-min Rain = 0
KAM3 170029Z 01007KT 25/09 A3015 RMK A01 T02530094  RH  036%=      5-min Rain = 0
KAM3 170030Z 02007KT 25/09 A3015 RMK A01 T02520094  RH  037%=      5-min Rain = 0
KAM3 170031Z 02007KT 25/09 A3015 RMK A01 T02510092  RH  037%=      5-min Rain = 0
KAM3 170032Z 01007KT 25/09 A3015 RMK A01 T02510092  RH  037%=      5-min Rain = 0
KAM3 170033Z 02007KT 25/09 A3015 RMK A01 T02500092  RH  037%=      5-min Rain = 0
KAM3 170034Z 02007KT 25/09 A3015 RMK A01 T02500092  RH  037%=      5-min Rain = 0
KAM3 170035Z 02007KT 25/09 A3015 RMK A01 T02490092  RH  037%=      5-min Rain = 0
KAM3 170036Z 02007KT 25/09 A3015 RMK A01 T02480092  RH  037%=      5-min Rain = 0
KAM3 170037Z 02007KT 25/09 A3015 RMK A01 T02470092  RH  037%=      5-min Rain = 0
KAM3 170038Z 02007KT 25/09 A3015 RMK A01 T02460091  RH  037%=      5-min Rain = 0
KAM3 170039Z 02007KT 25/09 A3015 RMK A01 T02460091  RH  037%=      5-min Rain = 0
KAM3 170040Z 02007KT 25/09 A3015 RMK A01 T02450091  RH  038%=      5-min Rain = 0
KAM3 170041Z 02007KT 24/09 A3015 RMK A01 T02440092  RH  038%=      5-min Rain = 0
KAM3 170042Z 02007KT 24/09 A3015 RMK A01 T02430092  RH  038%=      5-min Rain = 0
KAM3 170043Z 02007KT 24/09 A3015 RMK A01 T02420091  RH  038%=      5-min Rain = 0
KAM3 170044Z 02007KT 24/09 A3015 RMK A01 T02410091  RH  039%=      5-min Rain = 0
KAM3 170045Z 02007KT 24/09 A3015 RMK A01 T02400091  RH  039%=      5-min Rain = 0
KAM3 170046Z 02007KT 24/09 A3015 RMK A01 T02390091  RH  039%=      5-min Rain = 0
KAM3 170047Z 02006KT 24/09 A3015 RMK A01 T02380092  RH  039%=      5-min Rain = 0
KAM3 170048Z 02006KT 24/09 A3015 RMK A01 T02370092  RH  040%=      5-min Rain = 0
KAM3 170049Z 02006KT 24/09 A3015 RMK A01 T02360091  RH  040%=      5-min Rain = 0
KAM3 170050Z 02006KT 24/09 A3015 RMK A01 T02350092  RH  040%=      5-min Rain = 0
KAM3 170051Z 02005KT 23/09 A3015 RMK A01 T02340091  RH  040%=      5-min Rain = 0
KAM3 170052Z 02005KT 23/09 A3015 RMK A01 T02340089  RH  040%=      5-min Rain = 0
KAM3 170053Z 01005KT 23/09 A3015 RMK A01 T02340089  RH  040%=      5-min Rain = 0
KAM3 170054Z 01005KT 23/09 A3015 RMK A01 T02340089  RH  040%=      5-min Rain = 0
KAM3 170055Z 01005KT 23/09 A3015 RMK A01 T02340088  RH  039%=      5-min Rain = 0
KAM3 170056Z 01005KT 23/09 A3015 RMK A01 T02340088  RH  039%=      5-min Rain = 0
KAM3 170057Z 01005KT 24/09 A3015 RMK A01 T02350087  RH  039%=      5-min Rain = 0
KAM3 170058Z 01005KT 24/09 A3015 RMK A01 T02350088  RH  039%=      5-min Rain = 0
KAM3 170059Z 01005KT 24/09 A3015 RMK A01 T02350088  RH  039%=      5-min Rain = 0
KAM3 170100Z 01006KT 24/09 A3015 RMK A01 T02350088  RH  039%=      5-min Rain = 0
KAM3 170101Z 01006KT 24/09 A3015 RMK A01 T02350089  RH  039%=      5-min Rain = 0
KAM3 170102Z 01006KT 24/09 A3016 RMK A01 T02350089  RH  039%=      5-min Rain = 0
KAM3 170103Z 01006KT 24/09 A3016 RMK A01 T02350089  RH  040%=      5-min Rain = 0
KAM3 170104Z 01006KT 23/09 A3016 RMK A01 T02340090  RH  040%=      5-min Rain = 0
KAM3 170105Z 01006KT 23/09 A3016 RMK A01 T02340090  RH  040%=      5-min Rain = 0
KAM3 170106Z 01006KT 23/09 A3016 RMK A01 T02330090  RH  040%=      5-min Rain = 0
KAM3 170107Z 01006KT 23/09 A3016 RMK A01 T02330091  RH  041%=      5-min Rain = 0
KAM3 170108Z 01006KT 23/09 A3016 RMK A01 T02320091  RH  041%=      5-min Rain = 0
KAM3 170109Z 01006KT 23/09 A3016 RMK A01 T02300092  RH  041%=      5-min Rain = 0
KAM3 170110Z 01006KT 23/09 A3016 RMK A01 T02290093  RH  042%=      5-min Rain = 0
KAM3 170111Z 01006KT 23/09 A3016 RMK A01 T02290094  RH  042%=      5-min Rain = 0
KAM3 170112Z 01006KT 23/09 A3016 RMK A01 T02270093  RH  042%=      5-min Rain = 0
KAM3 170113Z 01006KT 23/09 A3016 RMK A01 T02270094  RH  043%=      5-min Rain = 0
KAM3 170114Z 01006KT 23/09 A3016 RMK A01 T02270094  RH  043%=      5-min Rain = 0
KAM3 170115Z 01006KT 23/09 A3016 RMK A01 T02260094  RH  043%=      5-min Rain = 0
KAM3 170116Z 02007KT 23/10 A3016 RMK A01 T02260095  RH  043%=      5-min Rain = 0
KAM3 170117Z 02006KT 23/10 A3016 RMK A01 T02260095  RH  043%=      5-min Rain = 0
KAM3 170118Z 01007KT 23/10 A3016 RMK A01 T02250095  RH  044%=      5-min Rain = 0
KAM3 170119Z 01007KT 23/10 A3016 RMK A01 T02250096  RH  044%=      5-min Rain = 0
KAM3 170120Z 02007KT 22/10 A3016 RMK A01 T02240097  RH  044%=      5-min Rain = 0
KAM3 170121Z 02007KT 22/10 A3016 RMK A01 T02230097  RH  045%=      5-min Rain = 0
KAM3 170122Z 02006KT 22/10 A3016 RMK A01 T02230097  RH  045%=      5-min Rain = 0
KAM3 170123Z 02006KT 22/10 A3016 RMK A01 T02220097  RH  045%=      5-min Rain = 0
KAM3 170124Z 02006KT 22/10 A3016 RMK A01 T02220098  RH  045%=      5-min Rain = 0
KAM3 170125Z 02006KT 22/10 A3016 RMK A01 T02210098  RH  046%=      5-min Rain = 0
KAM3 170126Z 02006KT 22/10 A3016 RMK A01 T02200097  RH  046%=      5-min Rain = 0
KAM3 170127Z 02006KT 22/10 A3016 RMK A01 T02200098  RH  046%=      5-min Rain = 0
KAM3 170128Z 02006KT 22/10 A3016 RMK A01 T02200098  RH  046%=      5-min Rain = 0
KAM3 170129Z 02006KT 22/10 A3016 RMK A01 T02200098  RH  046%=      5-min Rain = 0
KAM3 170130Z 02006KT 22/10 A3016 RMK A01 T02200097  RH  046%=      5-min Rain = 0
KAM3 170131Z 02006KT 22/10 A3017 RMK A01 T02200098  RH  046%=      5-min Rain = 0
KAM3 170132Z 02007KT 22/10 A3017 RMK A01 T02200098  RH  046%=      5-min Rain = 0
KAM3 170133Z 02006KT 22/10 A3017 RMK A01 T02200098  RH  046%=      5-min Rain = 0
KAM3 170134Z 02006KT 22/10 A3017 RMK A01 T02190099  RH  046%=      5-min Rain = 0
KAM3 170135Z 02006KT 22/10 A3017 RMK A01 T02180098  RH  046%=      5-min Rain = 0
KAM3 170136Z 02006KT 22/10 A3017 RMK A01 T02180099  RH  047%=      5-min Rain = 0
KAM3 170137Z 02006KT 22/10 A3017 RMK A01 T02180099  RH  047%=      5-min Rain = 0
KAM3 170138Z 02006KT 22/10 A3017 RMK A01 T02180099  RH  047%=      5-min Rain = 0
KAM3 170139Z 02007KT 22/10 A3017 RMK A01 T02180099  RH  047%=      5-min Rain = 0
KAM3 170140Z 02007KT 22/10 A3017 RMK A01 T02170099  RH  047%=      5-min Rain = 0
KAM3 170141Z 02007KT 22/10 A3017 RMK A01 T02180099  RH  047%=      5-min Rain = 0
KAM3 170142Z 02007KT 22/10 A3017 RMK A01 T02180100  RH  047%=      5-min Rain = 0
KAM3 170143Z 02007KT 22/10 A3017 RMK A01 T02180100  RH  047%=      5-min Rain = 0
KAM3 170144Z 02007KT 22/10 A3017 RMK A01 T02180099  RH  047%=      5-min Rain = 0
KAM3 170145Z 02007KT 22/10 A3017 RMK A01 T02180100  RH  047%=      5-min Rain = 0
KAM3 170146Z 02006KT 22/10 A3017 RMK A01 T02170101  RH  047%=      5-min Rain = 0
KAM3 170147Z 02006KT 22/10 A3017 RMK A01 T02160100  RH  048%=      5-min Rain = 0
KAM3 170148Z 02006KT 22/10 A3017 RMK A01 T02150101  RH  048%=      5-min Rain = 0
KAM3 170149Z 03005KT 22/10 A3017 RMK A01 T02150100  RH  048%=      5-min Rain = 0
KAM3 170150Z 03006KT 21/10 A3018 RMK A01 T02140100  RH  048%=      5-min Rain = 0
KAM3 170151Z 03006KT 21/10 A3018 RMK A01 T02140100  RH  048%=      5-min Rain = 0
KAM3 170152Z 03006KT 22/10 A3018 RMK A01 T02150100  RH  048%=      5-min Rain = 0
KAM3 170153Z 03007KT 22/10 A3018 RMK A01 T02150100  RH  048%=      5-min Rain = 0
KAM3 170154Z 03007KT 22/10 A3018 RMK A01 T02150101  RH  048%=      5-min Rain = 0
KAM3 170155Z 03007KT 22/10 A3018 RMK A01 T02150101  RH  048%=      5-min Rain = 0
KAM3 170156Z 04007KT 21/10 A3018 RMK A01 T02140101  RH  049%=      5-min Rain = 0
KAM3 170157Z 04006KT 21/10 A3018 RMK A01 T02130102  RH  049%=      5-min Rain = 0
KAM3 170158Z 04006KT 21/10 A3018 RMK A01 T02120103  RH  050%=      5-min Rain = 0
KAM3 170159Z 05006KT 21/10 A3018 RMK A01 T02110103  RH  050%=      5-min Rain = 0
KAM3 170200Z 05006KT 21/10 A3018 RMK A01 T02090103  RH  051%=      5-min Rain = 0
KAM3 170201Z 05007KT 21/10 A3018 RMK A01 T02080103  RH  051%=      5-min Rain = 0
KAM3 170202Z 05007KT 21/10 A3018 RMK A01 T02070104  RH  051%=      5-min Rain = 0
KAM3 170203Z 05008KT 21/10 A3018 RMK A01 T02060104  RH  052%=      5-min Rain = 0
KAM3 170204Z 05008KT 21/10 A3018 RMK A01 T02060103  RH  052%=      5-min Rain = 0
KAM3 170205Z 04008KT 21/10 A3018 RMK A01 T02060103  RH  052%=      5-min Rain = 0
KAM3 170206Z 04008KT 21/10 A3018 RMK A01 T02060103  RH  052%=      5-min Rain = 0
KAM3 170207Z 04008KT 21/10 A3019 RMK A01 T02060104  RH  052%=      5-min Rain = 0
KAM3 170208Z 04008KT 21/10 A3019 RMK A01 T02060104  RH  052%=      5-min Rain = 0
KAM3 170209Z 04008KT 21/10 A3019 RMK A01 T02060104  RH  052%=      5-min Rain = 0
KAM3 170210Z 04008KT 21/10 A3019 RMK A01 T02060103  RH  052%=      5-min Rain = 0
KAM3 170211Z 04008KT 21/10 A3019 RMK A01 T02070103  RH  051%=      5-min Rain = 0
KAM3 170212Z 03008KT 21/10 A3019 RMK A01 T02080103  RH  051%=      5-min Rain = 0
KAM3 170213Z 03008KT 21/10 A3019 RMK A01 T02090103  RH  051%=      5-min Rain = 0
KAM3 170214Z 03007KT 21/10 A3019 RMK A01 T02100103  RH  050%=      5-min Rain = 0
KAM3 170215Z 03007KT 21/10 A3019 RMK A01 T02100103  RH  050%=      5-min Rain = 0
KAM3 170216Z 03007KT 21/10 A3019 RMK A01 T02090103  RH  050%=      5-min Rain = 0
KAM3 170217Z 03007KT 21/10 A3019 RMK A01 T02090103  RH  050%=      5-min Rain = 0
KAM3 170218Z 03007KT 21/10 A3019 RMK A01 T02090103  RH  051%=      5-min Rain = 0
KAM3 170219Z 03006KT 21/10 A3019 RMK A01 T02090103  RH  051%=      5-min Rain = 0
KAM3 170220Z 03006KT 21/10 A3019 RMK A01 T02080103  RH  051%=      5-min Rain = 0
KAM3 170221Z 03006KT 21/10 A3019 RMK A01 T02070103  RH  051%=      5-min Rain = 0
KAM3 170222Z 03006KT 21/10 A3019 RMK A01 T02070103  RH  051%=      5-min Rain = 0
KAM3 170223Z 03006KT 21/10 A3019 RMK A01 T02050103  RH  052%=      5-min Rain = 0
KAM3 170224Z 03006KT 20/10 A3019 RMK A01 T02040103  RH  052%=      5-min Rain = 0
KAM3 170225Z 03006KT 20/10 A3019 RMK A01 T02040103  RH  052%=      5-min Rain = 0
KAM3 170226Z 03006KT 20/10 A3019 RMK A01 T02030103  RH  052%=      5-min Rain = 0
KAM3 170227Z 03006KT 20/10 A3019 RMK A01 T02030103  RH  053%=      5-min Rain = 0
KAM3 170228Z 03006KT 20/10 A3019 RMK A01 T02020103  RH  053%=      5-min Rain = 0
KAM3 170229Z 03006KT 20/10 A302 RMK A01 T02010103  RH  053%=      5-min Rain = 0
KAM3 170230Z 03006KT 20/10 A302 RMK A01 T02010103  RH  053%=      5-min Rain = 0
KAM3 170231Z 03006KT 20/10 A302 RMK A01 T02010103  RH  053%=      5-min Rain = 0
KAM3 170232Z 03007KT 20/10 A302 RMK A01 T02010101  RH  052%=      5-min Rain = 0
KAM3 170233Z 03007KT 20/10 A302 RMK A01 T02020101  RH  052%=      5-min Rain = 0
KAM3 170234Z 03007KT 20/10 A302 RMK A01 T02020102  RH  052%=      5-min Rain = 0
KAM3 170235Z 03007KT 20/10 A302 RMK A01 T02010102  RH  053%=      5-min Rain = 0
KAM3 170236Z 04007KT 20/10 A302 RMK A01 T02000102  RH  053%=      5-min Rain = 0
KAM3 170237Z 04007KT 20/10 A302 RMK A01 T02000103  RH  054%=      5-min Rain = 0
KAM3 170238Z 04007KT 20/10 A302 RMK A01 T01980103  RH  054%=      5-min Rain = 0
KAM3 170239Z 04007KT 20/10 A302 RMK A01 T01970103  RH  054%=      5-min Rain = 0
KAM3 170240Z 04008KT 20/10 A302 RMK A01 T01970102  RH  054%=      5-min Rain = 0
KAM3 170241Z 04009KT 20/10 A302 RMK A01 T01970102  RH  054%=      5-min Rain = 0
KAM3 170242Z 04009KT 20/10 A3021 RMK A01 T01970100  RH  054%=      5-min Rain = 0
KAM3 170243Z 04009KT 20/10 A3021 RMK A01 T01980100  RH  053%=      5-min Rain = 0
KAM3 170244Z 04008KT 20/10 A3021 RMK A01 T01990099  RH  052%=      5-min Rain = 0
KAM3 170245Z 04008KT 20/10 A3021 RMK A01 T02010099  RH  052%=      5-min Rain = 0
KAM3 170246Z 04008KT 20/10 A3021 RMK A01 T02020099  RH  051%=      5-min Rain = 0
KAM3 170247Z 04008KT 20/10 A3021 RMK A01 T02030099  RH  051%=      5-min Rain = 0
KAM3 170248Z 04008KT 20/10 A3021 RMK A01 T02030099  RH  051%=      5-min Rain = 0
KAM3 170249Z 04008KT 20/10 A3021 RMK A01 T02020099  RH  052%=      5-min Rain = 0
KAM3 170250Z 04008KT 20/10 A3021 RMK A01 T02020101  RH  052%=      5-min Rain = 0
KAM3 170251Z 04008KT 20/10 A3021 RMK A01 T02010101  RH  052%=      5-min Rain = 0
KAM3 170252Z 03008KT 20/10 A3021 RMK A01 T02000099  RH  052%=      5-min Rain = 0
KAM3 170253Z 03008KT 20/10 A3021 RMK A01 T02010099  RH  052%=      5-min Rain = 0
KAM3 170254Z 03009KT 20/10 A3021 RMK A01 T02020099  RH  051%=      5-min Rain = 0
KAM3 170255Z 03008KT 20/10 A3021 RMK A01 T02020098  RH  051%=      5-min Rain = 0
KAM3 170256Z 03009KT 20/10 A3021 RMK A01 T02020097  RH  051%=      5-min Rain = 0
KAM3 170257Z 03009KT 20/10 A3021 RMK A01 T02020097  RH  051%=      5-min Rain = 0
KAM3 170258Z 03009KT 20/10 A3021 RMK A01 T02020097  RH  051%=      5-min Rain = 0
KAM3 170259Z 03008KT 20/10 A3021 RMK A01 T02030097  RH  051%=      5-min Rain = 0
KAM3 170300Z 03008KT 20/10 A3021 RMK A01 T02030097  RH  051%=      5-min Rain = 0
KAM3 170301Z 03008KT 20/10 A3021 RMK A01 T02020098  RH  051%=      5-min Rain = 0
KAM3 170302Z 03009KT 20/10 A3021 RMK A01 T02010098  RH  051%=      5-min Rain = 0
KAM3 170303Z 03009KT 20/10 A3021 RMK A01 T02010097  RH  051%=      5-min Rain = 0
KAM3 170304Z 03008KT 20/10 A3021 RMK A01 T02010097  RH  051%=      5-min Rain = 0
KAM3 170305Z 03009KT 20/10 A3021 RMK A01 T02010097  RH  051%=      5-min Rain = 0
KAM3 170306Z 03009KT 20/10 A3021 RMK A01 T02010097  RH  051%=      5-min Rain = 0
KAM3 170307Z 03009KT 20/10 A3021 RMK A01 T02010097  RH  051%=      5-min Rain = 0
KAM3 170308Z 03009KT 20/10 A3021 RMK A01 T02010096  RH  051%=      5-min Rain = 0
KAM3 170309Z 03009KT 20/10 A3021 RMK A01 T02010095  RH  051%=      5-min Rain = 0
KAM3 170310Z 03009KT 20/10 A3021 RMK A01 T02010095  RH  051%=      5-min Rain = 0
KAM3 170311Z 03009KT 20/10 A3021 RMK A01 T02020096  RH  050%=      5-min Rain = 0
KAM3 170312Z 03009KT 20/10 A3021 RMK A01 T02020096  RH  051%=      5-min Rain = 0
KAM3 170313Z 03009KT 20/10 A3021 RMK A01 T02010096  RH  051%=      5-min Rain = 0
KAM3 170314Z 03009KT 20/10 A3021 RMK A01 T02010096  RH  051%=      5-min Rain = 0
KAM3 170315Z 03009KT 20/10 A3021 RMK A01 T02000096  RH  051%=      5-min Rain = 0
KAM3 170316Z 03009KT 20/10 A3021 RMK A01 T02000096  RH  051%=      5-min Rain = 0
KAM3 170317Z 03009KT 20/10 A3021 RMK A01 T02000097  RH  051%=      5-min Rain = 0
KAM3 170318Z 03009KT 20/10 A3021 RMK A01 T01990097  RH  052%=      5-min Rain = 0
KAM3 170319Z 03009KT 20/10 A3021 RMK A01 T01980096  RH  052%=      5-min Rain = 0
KAM3 170320Z 03009KT 20/10 A3021 RMK A01 T01990096  RH  052%=      5-min Rain = 0
KAM3 170321Z 03009KT 20/10 A3021 RMK A01 T01980096  RH  052%=      5-min Rain = 0
KAM3 170322Z 03008KT 20/10 A3021 RMK A01 T01980096  RH  052%=      5-min Rain = 0
KAM3 170323Z 03009KT 20/10 A3021 RMK A01 T01980096  RH  052%=      5-min Rain = 0
KAM3 170324Z 03009KT 20/10 A3021 RMK A01 T01980097  RH  052%=      5-min Rain = 0
KAM3 170325Z 03008KT 20/10 A3021 RMK A01 T01970097  RH  052%=      5-min Rain = 0
KAM3 170326Z 03008KT 20/10 A3021 RMK A01 T01960097  RH  053%=      5-min Rain = 0
KAM3 170327Z 03008KT 20/10 A3021 RMK A01 T01950097  RH  053%=      5-min Rain = 0
KAM3 170328Z 03008KT 19/10 A3021 RMK A01 T01940097  RH  053%=      5-min Rain = 0
KAM3 170329Z 03008KT 19/10 A3022 RMK A01 T01940097  RH  054%=      5-min Rain = 0
KAM3 170330Z 03008KT 19/10 A3022 RMK A01 T01930098  RH  054%=      5-min Rain = 0
KAM3 170331Z 03008KT 19/10 A3022 RMK A01 T01930098  RH  054%=      5-min Rain = 0
KAM3 170332Z 04007KT 19/10 A3022 RMK A01 T01920097  RH  054%=      5-min Rain = 0
KAM3 170333Z 04007KT 19/10 A3022 RMK A01 T01910098  RH  054%=      5-min Rain = 0
KAM3 170334Z 04007KT 19/10 A3022 RMK A01 T01910098  RH  055%=      5-min Rain = 0
KAM3 170335Z 04007KT 19/10 A3022 RMK A01 T01910098  RH  055%=      5-min Rain = 0
KAM3 170336Z 04007KT 19/10 A3022 RMK A01 T01900099  RH  055%=      5-min Rain = 0
KAM3 170337Z 04007KT 19/10 A3022 RMK A01 T01890099  RH  056%=      5-min Rain = 0
KAM3 170338Z 04007KT 19/10 A3022 RMK A01 T01890099  RH  056%=      5-min Rain = 0
KAM3 170339Z 04007KT 19/10 A3022 RMK A01 T01880099  RH  056%=      5-min Rain = 0
KAM3 170340Z 04007KT 19/10 A3022 RMK A01 T01880099  RH  056%=      5-min Rain = 0
KAM3 170341Z 04008KT 19/10 A3022 RMK A01 T01870099  RH  056%=      5-min Rain = 0
KAM3 170342Z 04008KT 19/10 A3022 RMK A01 T01870099  RH  057%=      5-min Rain = 0
KAM3 170343Z 04008KT 19/10 A3022 RMK A01 T01870099  RH  057%=      5-min Rain = 0
KAM3 170344Z 04007KT 19/10 A3022 RMK A01 T01870100  RH  057%=      5-min Rain = 0
KAM3 170345Z 04007KT 19/10 A3022 RMK A01 T01860099  RH  057%=      5-min Rain = 0
KAM3 170346Z 05008KT 19/10 A3022 RMK A01 T01860099  RH  057%=      5-min Rain = 0
KAM3 170347Z 05008KT 19/10 A3022 RMK A01 T01860099  RH  057%=      5-min Rain = 0
KAM3 170348Z 05008KT 19/10 A3022 RMK A01 T01860099  RH  057%=      5-min Rain = 0
KAM3 170349Z 05008KT 19/10 A3022 RMK A01 T01870099  RH  057%=      5-min Rain = 0
KAM3 170350Z 05008KT 19/10 A3022 RMK A01 T01870099  RH  056%=      5-min Rain = 0
KAM3 170351Z 05008KT 19/10 A3022 RMK A01 T01880099  RH  056%=      5-min Rain = 0
KAM3 170352Z 05008KT 19/10 A3022 RMK A01 T01880099  RH  056%=      5-min Rain = 0
KAM3 170353Z 05008KT 19/10 A3022 RMK A01 T01880099  RH  056%=      5-min Rain = 0
KAM3 170354Z 05008KT 19/10 A3022 RMK A01 T01890099  RH  056%=      5-min Rain = 0
KAM3 170355Z 05008KT 19/10 A3022 RMK A01 T01910100  RH  055%=      5-min Rain = 0
KAM3 170356Z 05007KT 19/10 A3022 RMK A01 T01930101  RH  055%=      5-min Rain = 0
KAM3 170357Z 05007KT 19/10 A3022 RMK A01 T01940101  RH  055%=      5-min Rain = 0
KAM3 170358Z 05007KT 19/10 A3022 RMK A01 T01940102  RH  055%=      5-min Rain = 0
KAM3 170359Z 05008KT 20/10 A3022 RMK A01 T01950102  RH  055%=      5-min Rain = 0
KAM3 170400Z 05008KT 19/10 A3022 RMK A01 T01940102  RH  055%=      5-min Rain = 0
KAM3 170401Z 05008KT 20/10 A3022 RMK A01 T01950103  RH  055%=      5-min Rain = 0
KAM3 170402Z 05007KT 19/10 A3023 RMK A01 T01940103  RH  056%=      5-min Rain = 0
KAM3 170403Z 05007KT 19/10 A3023 RMK A01 T01940104  RH  056%=      5-min Rain = 0
KAM3 170404Z 05008KT 19/10 A3023 RMK A01 T01930104  RH  056%=      5-min Rain = 0
KAM3 170405Z 05008KT 19/10 A3023 RMK A01 T01930104  RH  056%=      5-min Rain = 0
KAM3 170406Z 05008KT 19/11 A3023 RMK A01 T01920105  RH  057%=      5-min Rain = 0
KAM3 170407Z 05008KT 19/11 A3023 RMK A01 T01910105  RH  058%=      5-min Rain = 0
KAM3 170408Z 05008KT 19/11 A3023 RMK A01 T01900106  RH  058%=      5-min Rain = 0
KAM3 170409Z 05008KT 19/11 A3023 RMK A01 T01900106  RH  058%=      5-min Rain = 0
KAM3 170410Z 05008KT 19/11 A3023 RMK A01 T01900106  RH  058%=      5-min Rain = 0
KAM3 170411Z 05008KT 19/11 A3023 RMK A01 T01900106  RH  058%=      5-min Rain = 0
KAM3 170412Z 05009KT 19/11 A3023 RMK A01 T01910107  RH  058%=      5-min Rain = 0
KAM3 170413Z 05009KT 19/11 A3023 RMK A01 T01910107  RH  058%=      5-min Rain = 0
KAM3 170414Z 04009KT 19/11 A3023 RMK A01 T01910107  RH  058%=      5-min Rain = 0
KAM3 170415Z 04009KT 19/11 A3023 RMK A01 T01920107  RH  058%=      5-min Rain = 0
KAM3 170416Z 04009KT 19/11 A3023 RMK A01 T01920107  RH  058%=      5-min Rain = 0
KAM3 170417Z 04009KT 19/11 A3023 RMK A01 T01930107  RH  057%=      5-min Rain = 0
KAM3 170418Z 04009KT 19/11 A3023 RMK A01 T01940108  RH  057%=      5-min Rain = 0
KAM3 170419Z 04009KT 20/11 A3023 RMK A01 T01950107  RH  057%=      5-min Rain = 0
KAM3 170420Z 04009KT 20/11 A3023 RMK A01 T01950108  RH  057%=      5-min Rain = 0
KAM3 170421Z 04009KT 20/11 A3023 RMK A01 T01950108  RH  057%=      5-min Rain = 0
KAM3 170422Z 04009KT 20/11 A3023 RMK A01 T01950108  RH  057%=      5-min Rain = 0
KAM3 170423Z 04009KT 20/11 A3023 RMK A01 T01960108  RH  057%=      5-min Rain = 0
KAM3 170424Z 04008KT 20/11 A3023 RMK A01 T01960108  RH  057%=      5-min Rain = 0
KAM3 170425Z 04008KT 20/11 A3023 RMK A01 T01960108  RH  057%=      5-min Rain = 0
KAM3 170426Z 04008KT 20/11 A3023 RMK A01 T01960109  RH  057%=      5-min Rain = 0
KAM3 170427Z 04008KT 20/11 A3023 RMK A01 T01960109  RH  057%=      5-min Rain = 0
KAM3 170428Z 04008KT 20/11 A3023 RMK A01 T01960109  RH  057%=      5-min Rain = 0
KAM3 170429Z 04008KT 20/11 A3023 RMK A01 T01950109  RH  057%=      5-min Rain = 0
KAM3 170430Z 04007KT 20/11 A3023 RMK A01 T01950109  RH  058%=      5-min Rain = 0
KAM3 170431Z 04007KT 19/11 A3023 RMK A01 T01940109  RH  058%=      5-min Rain = 0
KAM3 170432Z 04008KT 19/11 A3023 RMK A01 T01940109  RH  058%=      5-min Rain = 0
KAM3 170433Z 05008KT 19/11 A3023 RMK A01 T01930110  RH  058%=      5-min Rain = 0
KAM3 170434Z 05008KT 19/11 A3023 RMK A01 T01930109  RH  058%=      5-min Rain = 0
KAM3 170435Z 05008KT 19/11 A3023 RMK A01 T01930110  RH  059%=      5-min Rain = 0
KAM3 170436Z 05008KT 19/11 A3023 RMK A01 T01930110  RH  059%=      5-min Rain = 0
KAM3 170437Z 05008KT 19/11 A3023 RMK A01 T01930110  RH  059%=      5-min Rain = 0
KAM3 170438Z 05008KT 19/11 A3023 RMK A01 T01920110  RH  059%=      5-min Rain = 0
KAM3 170439Z 05008KT 19/11 A3023 RMK A01 T01920111  RH  059%=      5-min Rain = 0
KAM3 170440Z 06008KT 19/11 A3023 RMK A01 T01910112  RH  060%=      5-min Rain = 0
KAM3 170441Z 06008KT 19/11 A3023 RMK A01 T01900113  RH  061%=      5-min Rain = 0
KAM3 170442Z 06008KT 19/11 A3023 RMK A01 T01900113  RH  061%=      5-min Rain = 0
KAM3 170443Z 06008KT 19/11 A3023 RMK A01 T01890113  RH  061%=      5-min Rain = 0
KAM3 170444Z 07008KT 19/11 A3023 RMK A01 T01880114  RH  062%=      5-min Rain = 0
KAM3 170445Z 09006KT 19/12 A3023 RMK A01 T01880115  RH  063%=      5-min Rain = 0
KAM3 170446Z 10005KT 19/12 A3023 RMK A01 T01870116  RH  063%=      5-min Rain = 0
KAM3 170447Z 11005KT 19/11 A3023 RMK A01 T01860114  RH  063%=      5-min Rain = 0
KAM3 170448Z 11005KT 19/11 A3023 RMK A01 T01860112  RH  062%=      5-min Rain = 0
KAM3 170449Z 12005KT 19/11 A3023 RMK A01 T01860111  RH  062%=      5-min Rain = 0
KAM3 170450Z 12005KT 19/11 A3023 RMK A01 T01850110  RH  061%=      5-min Rain = 0
KAM3 170451Z 11005KT 19/11 A3023 RMK A01 T01850110  RH  062%=      5-min Rain = 0
KAM3 170452Z 10005KT 19/11 A3023 RMK A01 T01850110  RH  062%=      5-min Rain = 0
KAM3 170453Z 10005KT 19/11 A3023 RMK A01 T01850110  RH  062%=      5-min Rain = 0
KAM3 170454Z 09004KT 19/11 A3023 RMK A01 T01850110  RH  061%=      5-min Rain = 0
KAM3 170455Z 09005KT 19/11 A3023 RMK A01 T01860111  RH  061%=      5-min Rain = 0
KAM3 170456Z 08005KT 19/11 A3023 RMK A01 T01860111  RH  061%=      5-min Rain = 0
KAM3 170457Z 08005KT 19/11 A3023 RMK A01 T01870111  RH  061%=      5-min Rain = 0
KAM3 170458Z 08005KT 19/11 A3023 RMK A01 T01880111  RH  061%=      5-min Rain = 0
KAM3 170459Z 08005KT 19/11 A3023 RMK A01 T01890112  RH  061%=      5-min Rain = 0

Page generated in 0.1252 seconds.